<?xml version="1.0" encoding="UTF-8" standalone="no" ?>
<gpx xmlns="http://www.topografix.com/GPX/1/1" xmlns:xsi="http://www.w3.org/2001/XMLSchema-instance" xsi:schemaLocation="http://www.topografix.com/GPX/1/1 http://www.topografix.com/GPX/1/1/gpx.xsd" version="1.1" creator="VisuGPX - https://www.visugpx.com">
  <metadata>
    <name>Mazères - St Bertrand / bords de Garonne</name>
  </metadata>
  <trk>
    <name><![CDATA[Mazères - St Bertrand / bords de Garonne]]></name>
    <trkseg>
      <trkpt lat="43.07113" lon="0.54167">
        <ele>430.68351</ele>
        <time>2021-04-23T19:21:57.189Z</time>
      </trkpt>
      <trkpt lat="43.07111" lon="0.54199">
        <ele>430.68351</ele>
        <time>2021-04-23T19:22:02.088Z</time>
      </trkpt>
      <trkpt lat="43.07115" lon="0.54251">
        <ele>430.68351</ele>
        <time>2021-04-23T19:22:10.123Z</time>
      </trkpt>
      <trkpt lat="43.07116" lon="0.54276">
        <ele>430.68351</ele>
        <time>2021-04-23T19:22:13.730Z</time>
      </trkpt>
      <trkpt lat="43.07116" lon="0.54281">
        <ele>430.68351</ele>
        <time>2021-04-23T19:22:14.395Z</time>
      </trkpt>
      <trkpt lat="43.07116" lon="0.5429">
        <ele>430.679555</ele>
        <time>2021-04-23T19:22:15.752Z</time>
      </trkpt>
      <trkpt lat="43.07114" lon="0.543">
        <ele>430.610484</ele>
        <time>2021-04-23T19:22:17.188Z</time>
      </trkpt>
      <trkpt lat="43.07111" lon="0.54306">
        <ele>430.556504</ele>
        <time>2021-04-23T19:22:18.327Z</time>
      </trkpt>
      <trkpt lat="43.07108" lon="0.54313">
        <ele>430.498423</ele>
        <time>2021-04-23T19:22:19.520Z</time>
      </trkpt>
      <trkpt lat="43.07104" lon="0.54332">
        <ele>430.36124</ele>
        <time>2021-04-23T19:22:22.207Z</time>
      </trkpt>
      <trkpt lat="43.07103" lon="0.54347">
        <ele>430.249856</ele>
        <time>2021-04-23T19:22:24.487Z</time>
      </trkpt>
      <trkpt lat="43.07103" lon="0.5435">
        <ele>430.232063</ele>
        <time>2021-04-23T19:22:24.859Z</time>
      </trkpt>
      <trkpt lat="43.07102" lon="0.54373">
        <ele>430.0663</ele>
        <time>2021-04-23T19:22:28.151Z</time>
      </trkpt>
      <trkpt lat="43.07103" lon="0.54394">
        <ele>429.917317</ele>
        <time>2021-04-23T19:22:31.108Z</time>
      </trkpt>
      <trkpt lat="43.07104" lon="0.544">
        <ele>429.869159</ele>
        <time>2021-04-23T19:22:32.087Z</time>
      </trkpt>
      <trkpt lat="43.07108" lon="0.54417">
        <ele>429.745274</ele>
        <time>2021-04-23T19:22:34.519Z</time>
      </trkpt>
      <trkpt lat="43.07117" lon="0.54455">
        <ele>429.46519</ele>
        <time>2021-04-23T19:22:40.066Z</time>
      </trkpt>
      <trkpt lat="43.07123" lon="0.54476">
        <ele>429.298943</ele>
        <time>2021-04-23T19:22:43.250Z</time>
      </trkpt>
      <trkpt lat="43.07161" lon="0.54556">
        <ele>428.770374</ele>
        <time>2021-04-23T19:22:56.746Z</time>
      </trkpt>
      <trkpt lat="43.07195" lon="0.54675">
        <ele>428.295115</ele>
        <time>2021-04-23T19:23:14.683Z</time>
      </trkpt>
      <trkpt lat="43.07058" lon="0.54745">
        <ele>430.561172</ele>
        <time>2021-04-23T19:23:51.232Z</time>
      </trkpt>
      <trkpt lat="43.06998" lon="0.54811">
        <ele>432.716505</ele>
        <time>2021-04-23T19:24:24.370Z</time>
      </trkpt>
      <trkpt lat="43.06993" lon="0.54818">
        <ele>432.921339</ele>
        <time>2021-04-23T19:24:27.782Z</time>
      </trkpt>
      <trkpt lat="43.0699" lon="0.54819">
        <ele>432.996352</ele>
        <time>2021-04-23T19:24:28.987Z</time>
      </trkpt>
      <trkpt lat="43.06988" lon="0.54821">
        <ele>433.115205</ele>
        <time>2021-04-23T19:24:30.189Z</time>
      </trkpt>
      <trkpt lat="43.06982" lon="0.54827">
        <ele>433.55757</ele>
        <time>2021-04-23T19:24:33.454Z</time>
      </trkpt>
      <trkpt lat="43.06961" lon="0.54851">
        <ele>435.251857</ele>
        <time>2021-04-23T19:24:45.956Z</time>
      </trkpt>
      <trkpt lat="43.06926" lon="0.54888">
        <ele>437.980964</ele>
        <time>2021-04-23T19:25:06.988Z</time>
      </trkpt>
      <trkpt lat="43.0692" lon="0.54893">
        <ele>438.398465</ele>
        <time>2021-04-23T19:25:10.345Z</time>
      </trkpt>
      <trkpt lat="43.06918" lon="0.54896">
        <ele>438.604717</ele>
        <time>2021-04-23T19:25:11.985Z</time>
      </trkpt>
      <trkpt lat="43.06902" lon="0.54889">
        <ele>439.599791</ele>
        <time>2021-04-23T19:25:20.007Z</time>
      </trkpt>
      <trkpt lat="43.0688" lon="0.54858">
        <ele>441.583245</ele>
        <time>2021-04-23T19:25:36.434Z</time>
      </trkpt>
      <trkpt lat="43.06797" lon="0.54702">
        <ele>449.397514</ele>
        <time>2021-04-23T19:26:43.153Z</time>
      </trkpt>
      <trkpt lat="43.06774" lon="0.547">
        <ele>450.589573</ele>
        <time>2021-04-23T19:26:53.263Z</time>
      </trkpt>
      <trkpt lat="43.06713" lon="0.54723">
        <ele>453.744295</ele>
        <time>2021-04-23T19:27:17.958Z</time>
      </trkpt>
      <trkpt lat="43.06702" lon="0.54722">
        <ele>454.027398</ele>
        <time>2021-04-23T19:27:23.399Z</time>
      </trkpt>
      <trkpt lat="43.06684" lon="0.54711">
        <ele>454.49591</ele>
        <time>2021-04-23T19:27:29.635Z</time>
      </trkpt>
      <trkpt lat="43.06671" lon="0.54696">
        <ele>454.890328</ele>
        <time>2021-04-23T19:27:36.800Z</time>
      </trkpt>
      <trkpt lat="43.06654" lon="0.54664">
        <ele>455.589321</ele>
        <time>2021-04-23T19:27:46.640Z</time>
      </trkpt>
      <trkpt lat="43.06644" lon="0.54643">
        <ele>456.039316</ele>
        <time>2021-04-23T19:27:52.874Z</time>
      </trkpt>
      <trkpt lat="43.06639" lon="0.54637">
        <ele>456.183659</ele>
        <time>2021-04-23T19:27:54.611Z</time>
      </trkpt>
      <trkpt lat="43.06635" lon="0.54633">
        <ele>456.302679</ele>
        <time>2021-04-23T19:27:56.254Z</time>
      </trkpt>
      <trkpt lat="43.06474" lon="0.5447">
        <ele>459.04648</ele>
        <time>2021-04-23T19:28:50.432Z</time>
      </trkpt>
      <trkpt lat="43.0645" lon="0.54448">
        <ele>459.290639</ele>
        <time>2021-04-23T19:28:57.618Z</time>
      </trkpt>
      <trkpt lat="43.06419" lon="0.5443">
        <ele>459.498781</ele>
        <time>2021-04-23T19:29:06.052Z</time>
      </trkpt>
      <trkpt lat="43.064" lon="0.54406">
        <ele>459.593956</ele>
        <time>2021-04-23T19:29:12.740Z</time>
      </trkpt>
      <trkpt lat="43.06358" lon="0.54356">
        <ele>459.799398</ele>
        <time>2021-04-23T19:29:26.640Z</time>
      </trkpt>
      <trkpt lat="43.06341" lon="0.5434">
        <ele>459.873979</ele>
        <time>2021-04-23T19:29:31.747Z</time>
      </trkpt>
      <trkpt lat="43.06308" lon="0.5432">
        <ele>460.009308</ele>
        <time>2021-04-23T19:29:40.799Z</time>
      </trkpt>
      <trkpt lat="43.06244" lon="0.54303">
        <ele>460.201482</ele>
        <time>2021-04-23T19:29:55.441Z</time>
      </trkpt>
      <trkpt lat="43.06214" lon="0.54314">
        <ele>460.278143</ele>
        <time>2021-04-23T19:30:02.378Z</time>
      </trkpt>
      <trkpt lat="43.06171" lon="0.54356">
        <ele>460.409968</ele>
        <time>2021-04-23T19:30:15.724Z</time>
      </trkpt>
      <trkpt lat="43.06127" lon="0.54363">
        <ele>460.519585</ele>
        <time>2021-04-23T19:30:26.544Z</time>
      </trkpt>
      <trkpt lat="43.0612" lon="0.5436">
        <ele>460.53739</ele>
        <time>2021-04-23T19:30:27.855Z</time>
      </trkpt>
      <trkpt lat="43.061" lon="0.54374">
        <ele>460.610281</ele>
        <time>2021-04-23T19:30:34.028Z</time>
      </trkpt>
      <trkpt lat="43.06025" lon="0.54403">
        <ele>460.884438</ele>
        <time>2021-04-23T19:30:53.732Z</time>
      </trkpt>
      <trkpt lat="43.05919" lon="0.54463">
        <ele>460.683432</ele>
        <time>2021-04-23T19:31:20.054Z</time>
      </trkpt>
      <trkpt lat="43.05903" lon="0.54472">
        <ele>460.401992</ele>
        <time>2021-04-23T19:31:23.239Z</time>
      </trkpt>
      <trkpt lat="43.05883" lon="0.54486">
        <ele>460.028622</ele>
        <time>2021-04-23T19:31:27.389Z</time>
      </trkpt>
      <trkpt lat="43.05858" lon="0.54528">
        <ele>459.371795</ele>
        <time>2021-04-23T19:31:34.412Z</time>
      </trkpt>
      <trkpt lat="43.05849" lon="0.54551">
        <ele>459.053042</ele>
        <time>2021-04-23T19:31:37.699Z</time>
      </trkpt>
      <trkpt lat="43.05839" lon="0.5459">
        <ele>458.559112</ele>
        <time>2021-04-23T19:31:42.762Z</time>
      </trkpt>
      <trkpt lat="43.05833" lon="0.54627">
        <ele>458.074721</ele>
        <time>2021-04-23T19:31:47.451Z</time>
      </trkpt>
      <trkpt lat="43.05832" lon="0.54707">
        <ele>456.904933</ele>
        <time>2021-04-23T19:31:57.171Z</time>
      </trkpt>
      <trkpt lat="43.05805" lon="0.54803">
        <ele>455.396826</ele>
        <time>2021-04-23T19:32:10.126Z</time>
      </trkpt>
      <trkpt lat="43.05799" lon="0.54819">
        <ele>455.136013</ele>
        <time>2021-04-23T19:32:12.474Z</time>
      </trkpt>
      <trkpt lat="43.0578" lon="0.54844">
        <ele>454.608578</ele>
        <time>2021-04-23T19:32:17.664Z</time>
      </trkpt>
      <trkpt lat="43.0576" lon="0.5486">
        <ele>455.12445</ele>
        <time>2021-04-23T19:32:22.234Z</time>
      </trkpt>
      <trkpt lat="43.05737" lon="0.54863">
        <ele>455.631216</ele>
        <time>2021-04-23T19:32:28.715Z</time>
      </trkpt>
      <trkpt lat="43.05684" lon="0.54826">
        <ele>456.96087</ele>
        <time>2021-04-23T19:32:45.576Z</time>
      </trkpt>
      <trkpt lat="43.05616" lon="0.54796">
        <ele>458.566396</ele>
        <time>2021-04-23T19:33:13.973Z</time>
      </trkpt>
      <trkpt lat="43.05613" lon="0.54794">
        <ele>458.644173</ele>
        <time>2021-04-23T19:33:17.438Z</time>
      </trkpt>
      <trkpt lat="43.05583" lon="0.54792">
        <ele>459.386738</ele>
        <time>2021-04-23T19:33:28.218Z</time>
      </trkpt>
      <trkpt lat="43.0557" lon="0.54799">
        <ele>459.749755</ele>
        <time>2021-04-23T19:33:35.377Z</time>
      </trkpt>
      <trkpt lat="43.05527" lon="0.54842">
        <ele>461.075711</ele>
        <time>2021-04-23T19:33:51.023Z</time>
      </trkpt>
      <trkpt lat="43.05509" lon="0.5485">
        <ele>461.542261</ele>
        <time>2021-04-23T19:33:59.296Z</time>
      </trkpt>
      <trkpt lat="43.05495" lon="0.54852">
        <ele>461.889511</ele>
        <time>2021-04-23T19:34:01.849Z</time>
      </trkpt>
      <trkpt lat="43.05473" lon="0.54848">
        <ele>462.450931</ele>
        <time>2021-04-23T19:34:10.578Z</time>
      </trkpt>
      <trkpt lat="43.05443" lon="0.54835">
        <ele>463.079131</ele>
        <time>2021-04-23T19:34:18.473Z</time>
      </trkpt>
      <trkpt lat="43.05438" lon="0.54824">
        <ele>462.957769</ele>
        <time>2021-04-23T19:34:19.937Z</time>
      </trkpt>
      <trkpt lat="43.05377" lon="0.54728">
        <ele>461.732215</ele>
        <time>2021-04-23T19:34:38.287Z</time>
      </trkpt>
      <trkpt lat="43.05307" lon="0.54671">
        <ele>460.903312</ele>
        <time>2021-04-23T19:34:52.394Z</time>
      </trkpt>
      <trkpt lat="43.05255" lon="0.54647">
        <ele>461.729083</ele>
        <time>2021-04-23T19:35:05.992Z</time>
      </trkpt>
      <trkpt lat="43.05218" lon="0.54609">
        <ele>462.44169</ele>
        <time>2021-04-23T19:35:19.840Z</time>
      </trkpt>
      <trkpt lat="43.05207" lon="0.54592">
        <ele>462.691808</ele>
        <time>2021-04-23T19:35:25.589Z</time>
      </trkpt>
      <trkpt lat="43.05202" lon="0.54583">
        <ele>462.817664</ele>
        <time>2021-04-23T19:35:28.437Z</time>
      </trkpt>
      <trkpt lat="43.05195" lon="0.54565">
        <ele>463.037216</ele>
        <time>2021-04-23T19:35:33.427Z</time>
      </trkpt>
      <trkpt lat="43.05189" lon="0.54512">
        <ele>463.923137</ele>
        <time>2021-04-23T19:35:48.652Z</time>
      </trkpt>
      <trkpt lat="43.05165" lon="0.54462">
        <ele>466.17296</ele>
        <time>2021-04-23T19:36:06.777Z</time>
      </trkpt>
      <trkpt lat="43.051" lon="0.54377">
        <ele>470.762674</ele>
        <time>2021-04-23T19:36:48.175Z</time>
      </trkpt>
      <trkpt lat="43.05024" lon="0.54297">
        <ele>475.44411</ele>
        <time>2021-04-23T19:37:31.067Z</time>
      </trkpt>
      <trkpt lat="43.05008" lon="0.54286">
        <ele>476.326038</ele>
        <time>2021-04-23T19:37:39.520Z</time>
      </trkpt>
      <trkpt lat="43.04994" lon="0.54284">
        <ele>476.994906</ele>
        <time>2021-04-23T19:37:45.658Z</time>
      </trkpt>
      <trkpt lat="43.04913" lon="0.54287">
        <ele>480.856809</ele>
        <time>2021-04-23T19:38:19.389Z</time>
      </trkpt>
      <trkpt lat="43.04838" lon="0.54298">
        <ele>481.931949</ele>
        <time>2021-04-23T19:38:45.958Z</time>
      </trkpt>
      <trkpt lat="43.04829" lon="0.54299">
        <ele>482.016777</ele>
        <time>2021-04-23T19:38:48.476Z</time>
      </trkpt>
      <trkpt lat="43.04808" lon="0.543">
        <ele>482.231035</ele>
        <time>2021-04-23T19:38:53.916Z</time>
      </trkpt>
      <trkpt lat="43.04787" lon="0.54301">
        <ele>482.440013</ele>
        <time>2021-04-23T19:38:59.785Z</time>
      </trkpt>
      <trkpt lat="43.04787" lon="0.54306">
        <ele>482.473043</ele>
        <time>2021-04-23T19:39:00.313Z</time>
      </trkpt>
      <trkpt lat="43.0475" lon="0.54377">
        <ele>482.867708</ele>
        <time>2021-04-23T19:39:13.444Z</time>
      </trkpt>
      <trkpt lat="43.04708" lon="0.54455">
        <ele>480.197035</ele>
        <time>2021-04-23T19:39:25.884Z</time>
      </trkpt>
      <trkpt lat="43.04698" lon="0.54469">
        <ele>479.668228</ele>
        <time>2021-04-23T19:39:28.206Z</time>
      </trkpt>
      <trkpt lat="43.04699" lon="0.54475">
        <ele>479.483506</ele>
        <time>2021-04-23T19:39:28.918Z</time>
      </trkpt>
      <trkpt lat="43.04717" lon="0.54699">
        <ele>472.466217</ele>
        <time>2021-04-23T19:39:55.096Z</time>
      </trkpt>
      <trkpt lat="43.04739" lon="0.54824">
        <ele>467.974038</ele>
        <time>2021-04-23T19:40:10.150Z</time>
      </trkpt>
      <trkpt lat="43.04743" lon="0.54847">
        <ele>467.326009</ele>
        <time>2021-04-23T19:40:12.848Z</time>
      </trkpt>
      <trkpt lat="43.04764" lon="0.55022">
        <ele>463.114033</ele>
        <time>2021-04-23T19:40:34.697Z</time>
      </trkpt>
      <trkpt lat="43.04774" lon="0.55077">
        <ele>461.833872</ele>
        <time>2021-04-23T19:40:42.307Z</time>
      </trkpt>
      <trkpt lat="43.04783" lon="0.5511">
        <ele>461.675394</ele>
        <time>2021-04-23T19:40:47.446Z</time>
      </trkpt>
      <trkpt lat="43.04792" lon="0.55139">
        <ele>461.529572</ele>
        <time>2021-04-23T19:40:52.173Z</time>
      </trkpt>
      <trkpt lat="43.04801" lon="0.55246">
        <ele>461.041692</ele>
        <time>2021-04-23T19:41:09.314Z</time>
      </trkpt>
      <trkpt lat="43.04807" lon="0.55264">
        <ele>460.951641</ele>
        <time>2021-04-23T19:41:12.617Z</time>
      </trkpt>
      <trkpt lat="43.04778" lon="0.55276">
        <ele>460.764978</ele>
        <time>2021-04-23T19:41:19.605Z</time>
      </trkpt>
      <trkpt lat="43.04752" lon="0.55288">
        <ele>460.761711</ele>
        <time>2021-04-23T19:41:25.975Z</time>
      </trkpt>
      <trkpt lat="43.04747" lon="0.55292">
        <ele>460.770848</ele>
        <time>2021-04-23T19:41:27.430Z</time>
      </trkpt>
      <trkpt lat="43.04738" lon="0.55305">
        <ele>460.789025</ele>
        <time>2021-04-23T19:41:30.339Z</time>
      </trkpt>
      <trkpt lat="43.04715" lon="0.55357">
        <ele>460.855247</ele>
        <time>2021-04-23T19:41:40.639Z</time>
      </trkpt>
      <trkpt lat="43.04679" lon="0.55397">
        <ele>460.923177</ele>
        <time>2021-04-23T19:41:51.148Z</time>
      </trkpt>
      <trkpt lat="43.04523" lon="0.55485">
        <ele>461.52642</ele>
        <time>2021-04-23T19:42:29.761Z</time>
      </trkpt>
      <trkpt lat="43.04433" lon="0.55519">
        <ele>462.378384</ele>
        <time>2021-04-23T19:42:53.751Z</time>
      </trkpt>
      <trkpt lat="43.04406" lon="0.55554">
        <ele>463.026037</ele>
        <time>2021-04-23T19:43:04.156Z</time>
      </trkpt>
      <trkpt lat="43.04389" lon="0.55556">
        <ele>463.328964</ele>
        <time>2021-04-23T19:43:09.189Z</time>
      </trkpt>
      <trkpt lat="43.04334" lon="0.55536">
        <ele>464.312743</ele>
        <time>2021-04-23T19:43:26.913Z</time>
      </trkpt>
      <trkpt lat="43.04307" lon="0.55536">
        <ele>464.779817</ele>
        <time>2021-04-23T19:43:35.313Z</time>
      </trkpt>
      <trkpt lat="43.04249" lon="0.55572">
        <ele>465.783158</ele>
        <time>2021-04-23T19:43:55.358Z</time>
      </trkpt>
      <trkpt lat="43.0423" lon="0.55592">
        <ele>466.149094</ele>
        <time>2021-04-23T19:44:02.642Z</time>
      </trkpt>
      <trkpt lat="43.04224" lon="0.55602">
        <ele>466.291045</ele>
        <time>2021-04-23T19:44:05.463Z</time>
      </trkpt>
      <trkpt lat="43.04081" lon="0.55945">
        <ele>469.11826</ele>
        <time>2021-04-23T19:45:19.739Z</time>
      </trkpt>
      <trkpt lat="43.04056" lon="0.5598">
        <ele>469.114746</ele>
        <time>2021-04-23T19:45:27.776Z</time>
      </trkpt>
      <trkpt lat="43.04019" lon="0.56004">
        <ele>469.110791</ele>
        <time>2021-04-23T19:45:36.633Z</time>
      </trkpt>
      <trkpt lat="43.03984" lon="0.56014">
        <ele>469.107289</ele>
        <time>2021-04-23T19:45:44.339Z</time>
      </trkpt>
      <trkpt lat="43.03897" lon="0.56024">
        <ele>468.81012</ele>
        <time>2021-04-23T19:46:02.717Z</time>
      </trkpt>
      <trkpt lat="43.03864" lon="0.56035">
        <ele>468.540563</ele>
        <time>2021-04-23T19:46:09.591Z</time>
      </trkpt>
      <trkpt lat="43.03776" lon="0.56119">
        <ele>467.702852</ele>
        <time>2021-04-23T19:46:30.141Z</time>
      </trkpt>
      <trkpt lat="43.03724" lon="0.56171">
        <ele>466.85178</ele>
        <time>2021-04-23T19:46:43.083Z</time>
      </trkpt>
      <trkpt lat="43.03708" lon="0.56184">
        <ele>466.604795</ele>
        <time>2021-04-23T19:46:46.676Z</time>
      </trkpt>
      <trkpt lat="43.03687" lon="0.56198">
        <ele>466.303431</ele>
        <time>2021-04-23T19:46:51.111Z</time>
      </trkpt>
      <trkpt lat="43.03634" lon="0.56217">
        <ele>465.5733</ele>
        <time>2021-04-23T19:47:01.286Z</time>
      </trkpt>
      <trkpt lat="43.03579" lon="0.56251">
        <ele>464.137418</ele>
        <time>2021-04-23T19:47:11.457Z</time>
      </trkpt>
      <trkpt lat="43.03573" lon="0.56267">
        <ele>463.75139</ele>
        <time>2021-04-23T19:47:13.782Z</time>
      </trkpt>
      <trkpt lat="43.03566" lon="0.56302">
        <ele>462.977412</ele>
        <time>2021-04-23T19:47:18.590Z</time>
      </trkpt>
      <trkpt lat="43.0358" lon="0.56358">
        <ele>461.73269</ele>
        <time>2021-04-23T19:47:26.079Z</time>
      </trkpt>
      <trkpt lat="43.03581" lon="0.56363">
        <ele>461.621176</ele>
        <time>2021-04-23T19:47:26.698Z</time>
      </trkpt>
      <trkpt lat="43.03582" lon="0.56371">
        <ele>461.447616</ele>
        <time>2021-04-23T19:47:27.605Z</time>
      </trkpt>
      <trkpt lat="43.03577" lon="0.56398">
        <ele>460.875119</ele>
        <time>2021-04-23T19:47:31.323Z</time>
      </trkpt>
      <trkpt lat="43.0353" lon="0.56479">
        <ele>458.818199</ele>
        <time>2021-04-23T19:47:44.085Z</time>
      </trkpt>
      <trkpt lat="43.03536" lon="0.56575">
        <ele>457.003046</ele>
        <time>2021-04-23T19:47:56.103Z</time>
      </trkpt>
      <trkpt lat="43.03533" lon="0.56608">
        <ele>456.379078</ele>
        <time>2021-04-23T19:48:00.768Z</time>
      </trkpt>
      <trkpt lat="43.03496" lon="0.56673">
        <ele>455.395502</ele>
        <time>2021-04-23T19:48:13.034Z</time>
      </trkpt>
      <trkpt lat="43.03478" lon="0.56724">
        <ele>455.282329</ele>
        <time>2021-04-23T19:48:21.852Z</time>
      </trkpt>
      <trkpt lat="43.03443" lon="0.56792">
        <ele>455.115443</ele>
        <time>2021-04-23T19:48:36.042Z</time>
      </trkpt>
      <trkpt lat="43.03434" lon="0.56838">
        <ele>455.021262</ele>
        <time>2021-04-23T19:48:44.281Z</time>
      </trkpt>
      <trkpt lat="43.03432" lon="0.56887">
        <ele>455.100908</ele>
        <time>2021-04-23T19:48:52.912Z</time>
      </trkpt>
      <trkpt lat="43.03429" lon="0.56905">
        <ele>455.197957</ele>
        <time>2021-04-23T19:48:55.950Z</time>
      </trkpt>
      <trkpt lat="43.03421" lon="0.5692">
        <ele>455.295193</ele>
        <time>2021-04-23T19:48:59.789Z</time>
      </trkpt>
      <trkpt lat="43.03409" lon="0.56932">
        <ele>455.401805</ele>
        <time>2021-04-23T19:49:03.294Z</time>
      </trkpt>
      <trkpt lat="43.03393" lon="0.56948">
        <ele>455.545287</ele>
        <time>2021-04-23T19:49:08.681Z</time>
      </trkpt>
      <trkpt lat="43.03355" lon="0.56977">
        <ele>455.854646</ele>
        <time>2021-04-23T19:49:19.984Z</time>
      </trkpt>
      <trkpt lat="43.03323" lon="0.57">
        <ele>456.111957</ele>
        <time>2021-04-23T19:49:29.653Z</time>
      </trkpt>
      <trkpt lat="43.0331" lon="0.57008">
        <ele>456.217419</ele>
        <time>2021-04-23T19:49:33.300Z</time>
      </trkpt>
      <trkpt lat="43.03294" lon="0.57021">
        <ele>456.436457</ele>
        <time>2021-04-23T19:49:38.811Z</time>
      </trkpt>
      <trkpt lat="43.0326" lon="0.57059">
        <ele>457.070637</ele>
        <time>2021-04-23T19:49:51.155Z</time>
      </trkpt>
      <trkpt lat="43.03242" lon="0.57071">
        <ele>457.358493</ele>
        <time>2021-04-23T19:49:56.875Z</time>
      </trkpt>
      <trkpt lat="43.03173" lon="0.57104">
        <ele>458.418422</ele>
        <time>2021-04-23T19:50:18.975Z</time>
      </trkpt>
      <trkpt lat="43.03112" lon="0.57125">
        <ele>459.205207</ele>
        <time>2021-04-23T19:50:37.366Z</time>
      </trkpt>
      <trkpt lat="43.03067" lon="0.57119">
        <ele>459.701549</ele>
        <time>2021-04-23T19:50:50.040Z</time>
      </trkpt>
      <trkpt lat="43.03052" lon="0.57125">
        <ele>459.873776</ele>
        <time>2021-04-23T19:50:54.278Z</time>
      </trkpt>
      <trkpt lat="43.03048" lon="0.57133">
        <ele>459.948578</ele>
        <time>2021-04-23T19:50:56.240Z</time>
      </trkpt>
      <trkpt lat="43.03051" lon="0.57139">
        <ele>460.004241</ele>
        <time>2021-04-23T19:50:57.567Z</time>
      </trkpt>
      <trkpt lat="43.03065" lon="0.57189">
        <ele>460.438218</ele>
        <time>2021-04-23T19:51:08.129Z</time>
      </trkpt>
      <trkpt lat="43.03064" lon="0.57206">
        <ele>460.577578</ele>
        <time>2021-04-23T19:51:11.471Z</time>
      </trkpt>
      <trkpt lat="43.03064" lon="0.57209">
        <ele>460.594595</ele>
        <time>2021-04-23T19:51:11.876Z</time>
      </trkpt>
      <trkpt lat="43.03061" lon="0.57236">
        <ele>460.818199</ele>
        <time>2021-04-23T19:51:17.313Z</time>
      </trkpt>
      <trkpt lat="43.03058" lon="0.57249">
        <ele>460.870194</ele>
        <time>2021-04-23T19:51:19.837Z</time>
      </trkpt>
      <trkpt lat="43.03045" lon="0.5729">
        <ele>461.028905</ele>
        <time>2021-04-23T19:51:28.128Z</time>
      </trkpt>
      <trkpt lat="43.0303" lon="0.57338">
        <ele>461.212889</ele>
        <time>2021-04-23T19:51:37.392Z</time>
      </trkpt>
      <trkpt lat="43.03006" lon="0.5739">
        <ele>461.43197</ele>
        <time>2021-04-23T19:51:48.483Z</time>
      </trkpt>
      <trkpt lat="43.03" lon="0.57403">
        <ele>461.489715</ele>
        <time>2021-04-23T19:51:51.696Z</time>
      </trkpt>
      <trkpt lat="43.02976" lon="0.57379">
        <ele>461.631205</ele>
        <time>2021-04-23T19:51:58.720Z</time>
      </trkpt>
      <trkpt lat="43.02941" lon="0.57345">
        <ele>461.73596</ele>
        <time>2021-04-23T19:52:09.139Z</time>
      </trkpt>
      <trkpt lat="43.0293" lon="0.57371">
        <ele>461.762645</ele>
        <time>2021-04-23T19:52:14.023Z</time>
      </trkpt>
      <trkpt lat="43.02898" lon="0.57448">
        <ele>461.843631</ele>
        <time>2021-04-23T19:52:29.193Z</time>
      </trkpt>
      <trkpt lat="43.02879" lon="0.57482">
        <ele>461.88219</ele>
        <time>2021-04-23T19:52:35.964Z</time>
      </trkpt>
      <trkpt lat="43.02825" lon="0.57542">
        <ele>461.804021</ele>
        <time>2021-04-23T19:52:50.953Z</time>
      </trkpt>
      <trkpt lat="43.02777" lon="0.57595">
        <ele>461.603535</ele>
        <time>2021-04-23T19:53:03.956Z</time>
      </trkpt>
      <trkpt lat="43.02743" lon="0.57623">
        <ele>461.475175</ele>
        <time>2021-04-23T19:53:12.158Z</time>
      </trkpt>
      <trkpt lat="43.02736" lon="0.57627">
        <ele>461.451071</ele>
        <time>2021-04-23T19:53:13.726Z</time>
      </trkpt>
      <trkpt lat="43.02728" lon="0.57632">
        <ele>461.423508</ele>
        <time>2021-04-23T19:53:15.570Z</time>
      </trkpt>
      <trkpt lat="43.02726" lon="0.57633">
        <ele>461.415535</ele>
        <time>2021-04-23T19:53:16.142Z</time>
      </trkpt>
      <trkpt lat="43.02737" lon="0.57665">
        <ele>461.32934</ele>
        <time>2021-04-23T19:53:21.612Z</time>
      </trkpt>
      <trkpt lat="43.02747" lon="0.57686">
        <ele>461.237118</ele>
        <time>2021-04-23T19:53:25.538Z</time>
      </trkpt>
      <trkpt lat="43.02789" lon="0.5774">
        <ele>460.936013</ele>
        <time>2021-04-23T19:53:37.930Z</time>
      </trkpt>
      <trkpt lat="43.02822" lon="0.57768">
        <ele>460.739226</ele>
        <time>2021-04-23T19:53:46.130Z</time>
      </trkpt>
      <trkpt lat="43.02824" lon="0.57771">
        <ele>460.721896</ele>
        <time>2021-04-23T19:53:46.970Z</time>
      </trkpt>
      <trkpt lat="43.02811" lon="0.57852">
        <ele>460.411304</ele>
        <time>2021-04-23T19:53:59.917Z</time>
      </trkpt>
      <trkpt lat="43.0281" lon="0.57863">
        <ele>460.368165</ele>
        <time>2021-04-23T19:54:01.667Z</time>
      </trkpt>
      <trkpt lat="43.02811" lon="0.57907">
        <ele>460.203316</ele>
        <time>2021-04-23T19:54:08.493Z</time>
      </trkpt>
      <trkpt lat="43.02843" lon="0.58051">
        <ele>459.636331</ele>
        <time>2021-04-23T19:54:31.787Z</time>
      </trkpt>
      <trkpt lat="43.02865" lon="0.5818">
        <ele>459.527485</ele>
        <time>2021-04-23T19:54:53.596Z</time>
      </trkpt>
      <trkpt lat="43.02879" lon="0.5824">
        <ele>459.554653</ele>
        <time>2021-04-23T19:55:04.238Z</time>
      </trkpt>
      <trkpt lat="43.029" lon="0.58327">
        <ele>459.599274</ele>
        <time>2021-04-23T19:55:20.538Z</time>
      </trkpt>
      <trkpt lat="43.02919" lon="0.58422">
        <ele>460.164997</ele>
        <time>2021-04-23T19:55:39.155Z</time>
      </trkpt>
      <trkpt lat="43.02922" lon="0.58458">
        <ele>460.375618</ele>
        <time>2021-04-23T19:55:46.391Z</time>
      </trkpt>
      <trkpt lat="43.02881" lon="0.58732">
        <ele>461.656521</ele>
        <time>2021-04-23T19:56:41.143Z</time>
      </trkpt>
      <trkpt lat="43.02863" lon="0.58816">
        <ele>461.900301</ele>
        <time>2021-04-23T19:56:56.045Z</time>
      </trkpt>
      <trkpt lat="43.02845" lon="0.58896">
        <ele>461.536239</ele>
        <time>2021-04-23T19:57:09.103Z</time>
      </trkpt>
      <trkpt lat="43.02802" lon="0.58996">
        <ele>461.033109</ele>
        <time>2021-04-23T19:57:26.788Z</time>
      </trkpt>
      <trkpt lat="43.0278" lon="0.59048">
        <ele>460.740579</ele>
        <time>2021-04-23T19:57:35.602Z</time>
      </trkpt>
      <trkpt lat="43.02763" lon="0.59108">
        <ele>460.378645</ele>
        <time>2021-04-23T19:57:45.461Z</time>
      </trkpt>
      <trkpt lat="43.02759" lon="0.59123">
        <ele>460.284575</ele>
        <time>2021-04-23T19:57:48.225Z</time>
      </trkpt>
      <trkpt lat="43.02762" lon="0.59159">
        <ele>460.083161</ele>
        <time>2021-04-23T19:57:53.688Z</time>
      </trkpt>
      <trkpt lat="43.02775" lon="0.59167">
        <ele>459.973633</ele>
        <time>2021-04-23T19:57:56.679Z</time>
      </trkpt>
      <trkpt lat="43.02901" lon="0.59337">
        <ele>458.282737</ele>
        <time>2021-04-23T19:58:31.015Z</time>
      </trkpt>
      <trkpt lat="43.02916" lon="0.59363">
        <ele>458.020564</ele>
        <time>2021-04-23T19:58:35.507Z</time>
      </trkpt>
      <trkpt lat="43.02925" lon="0.59378">
        <ele>457.867906</ele>
        <time>2021-04-23T19:58:38.399Z</time>
      </trkpt>
      <trkpt lat="43.02943" lon="0.59428">
        <ele>457.462315</ele>
        <time>2021-04-23T19:58:46.060Z</time>
      </trkpt>
      <trkpt lat="43.02948" lon="0.59439">
        <ele>457.381593</ele>
        <time>2021-04-23T19:58:47.640Z</time>
      </trkpt>
      <trkpt lat="43.02946" lon="0.59446">
        <ele>457.336003</ele>
        <time>2021-04-23T19:58:48.578Z</time>
      </trkpt>
      <trkpt lat="43.02954" lon="0.59476">
        <ele>457.124474</ele>
        <time>2021-04-23T19:58:53.595Z</time>
      </trkpt>
      <trkpt lat="43.02962" lon="0.59486">
        <ele>457.029168</ele>
        <time>2021-04-23T19:58:55.547Z</time>
      </trkpt>
      <trkpt lat="43.0298" lon="0.59494">
        <ele>456.860931</ele>
        <time>2021-04-23T19:58:59.580Z</time>
      </trkpt>
      <trkpt lat="43.0304" lon="0.59493">
        <ele>456.325097</ele>
        <time>2021-04-23T19:59:11.646Z</time>
      </trkpt>
      <trkpt lat="43.03041" lon="0.59497">
        <ele>456.298461</ele>
        <time>2021-04-23T19:59:12.326Z</time>
      </trkpt>
      <trkpt lat="43.03001" lon="0.59512">
        <ele>455.953872</ele>
        <time>2021-04-23T19:59:21.184Z</time>
      </trkpt>
      <trkpt lat="43.02949" lon="0.5952">
        <ele>455.733426</ele>
        <time>2021-04-23T19:59:33.148Z</time>
      </trkpt>
      <trkpt lat="43.02913" lon="0.59568">
        <ele>455.52192</ele>
        <time>2021-04-23T19:59:44.419Z</time>
      </trkpt>
      <trkpt lat="43.02887" lon="0.59637">
        <ele>455.281882</ele>
        <time>2021-04-23T19:59:56.843Z</time>
      </trkpt>
      <trkpt lat="43.02875" lon="0.59636">
        <ele>455.232078</ele>
        <time>2021-04-23T19:59:59.269Z</time>
      </trkpt>
      <trkpt lat="43.02802" lon="0.59631">
        <ele>454.133306</ele>
        <time>2021-04-23T20:00:14.175Z</time>
      </trkpt>
      <trkpt lat="43.02698" lon="0.59635">
        <ele>452.536129</ele>
        <time>2021-04-23T20:00:33.668Z</time>
      </trkpt>
      <trkpt lat="43.02579" lon="0.59609">
        <ele>449.233281</ele>
        <time>2021-04-23T20:00:54.617Z</time>
      </trkpt>
      <trkpt lat="43.02576" lon="0.5961">
        <ele>449.144027</ele>
        <time>2021-04-23T20:00:55.139Z</time>
      </trkpt>
      <trkpt lat="43.02574" lon="0.59615">
        <ele>449.032523</ele>
        <time>2021-04-23T20:00:55.705Z</time>
      </trkpt>
      <trkpt lat="43.02518" lon="0.5987">
        <ele>444.622745</ele>
        <time>2021-04-23T20:01:30.306Z</time>
      </trkpt>
      <trkpt lat="43.02518" lon="0.59928">
        <ele>443.752377</ele>
        <time>2021-04-23T20:01:39.142Z</time>
      </trkpt>
      <trkpt lat="43.02511" lon="0.59954">
        <ele>443.808758</ele>
        <time>2021-04-23T20:01:43.416Z</time>
      </trkpt>
      <trkpt lat="43.02492" lon="0.60007">
        <ele>443.932586</ele>
        <time>2021-04-23T20:01:53.315Z</time>
      </trkpt>
      <trkpt lat="43.0245" lon="0.60134">
        <ele>444.220297</ele>
        <time>2021-04-23T20:02:19.327Z</time>
      </trkpt>
      <trkpt lat="43.02444" lon="0.60149">
        <ele>444.25621</ele>
        <time>2021-04-23T20:02:22.863Z</time>
      </trkpt>
      <trkpt lat="43.02386" lon="0.60292">
        <ele>445.561055</ele>
        <time>2021-04-23T20:02:56.808Z</time>
      </trkpt>
      <trkpt lat="43.02377" lon="0.60312">
        <ele>445.753565</ele>
        <time>2021-04-23T20:03:01.659Z</time>
      </trkpt>
      <trkpt lat="43.02383" lon="0.60342">
        <ele>446.003006</ele>
        <time>2021-04-23T20:03:07.699Z</time>
      </trkpt>
      <trkpt lat="43.02389" lon="0.60417">
        <ele>446.232472</ele>
        <time>2021-04-23T20:03:21.899Z</time>
      </trkpt>
      <trkpt lat="43.02413" lon="0.60488">
        <ele>446.193266</ele>
        <time>2021-04-23T20:03:35.670Z</time>
      </trkpt>
      <trkpt lat="43.02419" lon="0.60501">
        <ele>446.185896</ele>
        <time>2021-04-23T20:03:38.129Z</time>
      </trkpt>
      <trkpt lat="43.02421" lon="0.60497">
        <ele>446.183784</ele>
        <time>2021-04-23T20:03:38.832Z</time>
      </trkpt>
      <trkpt lat="43.0243" lon="0.60483">
        <ele>446.174347</ele>
        <time>2021-04-23T20:03:41.837Z</time>
      </trkpt>
      <trkpt lat="43.02433" lon="0.60479">
        <ele>446.171792</ele>
        <time>2021-04-23T20:03:42.606Z</time>
      </trkpt>
      <trkpt lat="43.02444" lon="0.60481">
        <ele>446.163895</ele>
        <time>2021-04-23T20:03:44.978Z</time>
      </trkpt>
      <trkpt lat="43.02452" lon="0.60482">
        <ele>446.158756</ele>
        <time>2021-04-23T20:03:46.538Z</time>
      </trkpt>
      <trkpt lat="43.02463" lon="0.60484">
        <ele>446.151163</ele>
        <time>2021-04-23T20:03:48.719Z</time>
      </trkpt>
      <trkpt lat="43.02477" lon="0.60493">
        <ele>446.140006</ele>
        <time>2021-04-23T20:03:51.824Z</time>
      </trkpt>
      <trkpt lat="43.02491" lon="0.60511">
        <ele>446.016657</ele>
        <time>2021-04-23T20:03:55.423Z</time>
      </trkpt>
      <trkpt lat="43.02497" lon="0.60522">
        <ele>445.851802</ele>
        <time>2021-04-23T20:03:57.216Z</time>
      </trkpt>
      <trkpt lat="43.02502" lon="0.60531">
        <ele>445.720105</ele>
        <time>2021-04-23T20:03:58.666Z</time>
      </trkpt>
      <trkpt lat="43.02503" lon="0.60534">
        <ele>445.679117</ele>
        <time>2021-04-23T20:03:59.120Z</time>
      </trkpt>
      <trkpt lat="43.02512" lon="0.60551">
        <ele>445.434187</ele>
        <time>2021-04-23T20:04:01.740Z</time>
      </trkpt>
      <trkpt lat="43.02525" lon="0.60579">
        <ele>445.026244</ele>
        <time>2021-04-23T20:04:06.119Z</time>
      </trkpt>
      <trkpt lat="43.02529" lon="0.60588">
        <ele>444.902366</ele>
        <time>2021-04-23T20:04:07.404Z</time>
      </trkpt>
      <trkpt lat="43.02533" lon="0.60595">
        <ele>444.792142</ele>
        <time>2021-04-23T20:04:08.570Z</time>
      </trkpt>
      <trkpt lat="43.0258" lon="0.6068">
        <ele>443.50139</ele>
        <time>2021-04-23T20:04:22.582Z</time>
      </trkpt>
      <trkpt lat="43.02601" lon="0.60711">
        <ele>443.078058</ele>
        <time>2021-04-23T20:04:28.223Z</time>
      </trkpt>
      <trkpt lat="43.02617" lon="0.60734">
        <ele>442.89137</ele>
        <time>2021-04-23T20:04:32.549Z</time>
      </trkpt>
      <trkpt lat="43.02622" lon="0.60741">
        <ele>442.836432</ele>
        <time>2021-04-23T20:04:33.762Z</time>
      </trkpt>
      <trkpt lat="43.02624" lon="0.60743">
        <ele>442.817364</ele>
        <time>2021-04-23T20:04:34.201Z</time>
      </trkpt>
      <trkpt lat="43.02647" lon="0.60778">
        <ele>442.539441</ele>
        <time>2021-04-23T20:04:40.684Z</time>
      </trkpt>
      <trkpt lat="43.02689" lon="0.60839">
        <ele>442.047088</ele>
        <time>2021-04-23T20:04:52.895Z</time>
      </trkpt>
      <trkpt lat="43.0269" lon="0.6084">
        <ele>442.03896</ele>
        <time>2021-04-23T20:04:53.116Z</time>
      </trkpt>
      <trkpt lat="43.02716" lon="0.60878">
        <ele>441.73189</ele>
        <time>2021-04-23T20:05:01.532Z</time>
      </trkpt>
      <trkpt lat="43.02725" lon="0.60891">
        <ele>441.724619</ele>
        <time>2021-04-23T20:05:04.570Z</time>
      </trkpt>
      <trkpt lat="43.02755" lon="0.60934">
        <ele>441.763319</ele>
        <time>2021-04-23T20:05:14.990Z</time>
      </trkpt>
      <trkpt lat="43.02783" lon="0.60976">
        <ele>441.800534</ele>
        <time>2021-04-23T20:05:24.759Z</time>
      </trkpt>
      <trkpt lat="43.02793" lon="0.61002">
        <ele>441.81985</ele>
        <time>2021-04-23T20:05:29.501Z</time>
      </trkpt>
      <trkpt lat="43.02811" lon="0.61062">
        <ele>441.862344</ele>
        <time>2021-04-23T20:05:39.956Z</time>
      </trkpt>
      <trkpt lat="43.02812" lon="0.61064">
        <ele>441.863604</ele>
        <time>2021-04-23T20:05:40.287Z</time>
      </trkpt>
      <trkpt lat="43.02816" lon="0.61078">
        <ele>441.873396</ele>
        <time>2021-04-23T20:05:42.775Z</time>
      </trkpt>
      <trkpt lat="43.02812" lon="0.61081">
        <ele>441.875906</ele>
        <time>2021-04-23T20:05:43.904Z</time>
      </trkpt>
      <trkpt lat="43.02807" lon="0.61093">
        <ele>441.877247</ele>
        <time>2021-04-23T20:05:46.044Z</time>
      </trkpt>
      <trkpt lat="43.02809" lon="0.61101">
        <ele>441.878037</ele>
        <time>2021-04-23T20:05:47.375Z</time>
      </trkpt>
      <trkpt lat="43.02811" lon="0.61106">
        <ele>441.878641</ele>
        <time>2021-04-23T20:05:48.416Z</time>
      </trkpt>
      <trkpt lat="43.02815" lon="0.6111">
        <ele>441.879337</ele>
        <time>2021-04-23T20:05:49.618Z</time>
      </trkpt>
      <trkpt lat="43.0282" lon="0.61112">
        <ele>441.880045</ele>
        <time>2021-04-23T20:05:50.807Z</time>
      </trkpt>
      <trkpt lat="43.02826" lon="0.6111">
        <ele>441.880854</ele>
        <time>2021-04-23T20:05:52.163Z</time>
      </trkpt>
      <trkpt lat="43.0284" lon="0.6115">
        <ele>441.885218</ele>
        <time>2021-04-23T20:05:59.480Z</time>
      </trkpt>
      <trkpt lat="43.02845" lon="0.6117">
        <ele>441.887399</ele>
        <time>2021-04-23T20:06:03.014Z</time>
      </trkpt>
      <trkpt lat="43.02849" lon="0.61212">
        <ele>441.891551</ele>
        <time>2021-04-23T20:06:09.823Z</time>
      </trkpt>
      <trkpt lat="43.02823" lon="0.61442">
        <ele>442.435977</ele>
        <time>2021-04-23T20:06:47.717Z</time>
      </trkpt>
      <trkpt lat="43.02825" lon="0.61457">
        <ele>442.492741</ele>
        <time>2021-04-23T20:06:50.460Z</time>
      </trkpt>
      <trkpt lat="43.02864" lon="0.61599">
        <ele>444.533288</ele>
        <time>2021-04-23T20:07:20.195Z</time>
      </trkpt>
      <trkpt lat="43.02897" lon="0.6169">
        <ele>447.071708</ele>
        <time>2021-04-23T20:07:48.542Z</time>
      </trkpt>
      <trkpt lat="43.02902" lon="0.61706">
        <ele>447.520593</ele>
        <time>2021-04-23T20:07:54.021Z</time>
      </trkpt>
      <trkpt lat="43.02929" lon="0.61774">
        <ele>449.681536</ele>
        <time>2021-04-23T20:08:17.008Z</time>
      </trkpt>
      <trkpt lat="43.02938" lon="0.61783">
        <ele>450.278679</ele>
        <time>2021-04-23T20:08:22.206Z</time>
      </trkpt>
      <trkpt lat="43.02953" lon="0.6179">
        <ele>451.116148</ele>
        <time>2021-04-23T20:08:29.388Z</time>
      </trkpt>
      <trkpt lat="43.02987" lon="0.61789">
        <ele>452.880999</ele>
        <time>2021-04-23T20:08:44.385Z</time>
      </trkpt>
      <trkpt lat="43.03021" lon="0.61767">
        <ele>454.893417</ele>
        <time>2021-04-23T20:09:01.933Z</time>
      </trkpt>
      <trkpt lat="43.03035" lon="0.61765">
        <ele>455.600177</ele>
        <time>2021-04-23T20:09:07.770Z</time>
      </trkpt>
      <trkpt lat="43.03074" lon="0.61772">
        <ele>457.685488</ele>
        <time>2021-04-23T20:09:25.530Z</time>
      </trkpt>
      <trkpt lat="43.03083" lon="0.6178">
        <ele>458.217139</ele>
        <time>2021-04-23T20:09:30.029Z</time>
      </trkpt>
      <trkpt lat="43.03084" lon="0.61796">
        <ele>458.723392</ele>
        <time>2021-04-23T20:09:35.013Z</time>
      </trkpt>
      <trkpt lat="43.03075" lon="0.61862">
        <ele>460.629667</ele>
        <time>2021-04-23T20:09:52.861Z</time>
      </trkpt>
      <trkpt lat="43.03123" lon="0.62041">
        <ele>466.189407</ele>
        <time>2021-04-23T20:10:43.142Z</time>
      </trkpt>
      <trkpt lat="43.03154" lon="0.62155">
        <ele>470.648875</ele>
        <time>2021-04-23T20:11:19.331Z</time>
      </trkpt>
      <trkpt lat="43.03159" lon="0.62172">
        <ele>471.303735</ele>
        <time>2021-04-23T20:11:25.727Z</time>
      </trkpt>
      <trkpt lat="43.03201" lon="0.62174">
        <ele>473.411672</ele>
        <time>2021-04-23T20:11:45.071Z</time>
      </trkpt>
      <trkpt lat="43.03215" lon="0.62178">
        <ele>474.108537</ele>
        <time>2021-04-23T20:11:51.338Z</time>
      </trkpt>
      <trkpt lat="43.03226" lon="0.62183">
        <ele>474.807755</ele>
        <time>2021-04-23T20:11:56.357Z</time>
      </trkpt>
      <trkpt lat="43.03237" lon="0.62188">
        <ele>475.5985</ele>
        <time>2021-04-23T20:12:02.399Z</time>
      </trkpt>
      <trkpt lat="43.03246" lon="0.6219">
        <ele>476.25099</ele>
        <time>2021-04-23T20:12:06.887Z</time>
      </trkpt>
      <trkpt lat="43.03256" lon="0.62177">
        <ele>477.202264</ele>
        <time>2021-04-23T20:12:12.688Z</time>
      </trkpt>
      <trkpt lat="43.03259" lon="0.62175">
        <ele>477.412852</ele>
        <time>2021-04-23T20:12:14.681Z</time>
      </trkpt>
      <trkpt lat="43.03261" lon="0.62175">
        <ele>477.590253</ele>
        <time>2021-04-23T20:12:15.961Z</time>
      </trkpt>
      <trkpt lat="43.03264" lon="0.62177">
        <ele>477.804422</ele>
        <time>2021-04-23T20:12:17.323Z</time>
      </trkpt>
      <trkpt lat="43.03261" lon="0.62192">
        <ele>478.584745</ele>
        <time>2021-04-23T20:12:23.395Z</time>
      </trkpt>
      <trkpt lat="43.03281" lon="0.62317">
        <ele>484.90356</ele>
        <time>2021-04-23T20:13:09.104Z</time>
      </trkpt>
      <trkpt lat="43.03274" lon="0.62375">
        <ele>487.961988</ele>
        <time>2021-04-23T20:13:31.181Z</time>
      </trkpt>
      <trkpt lat="43.0328" lon="0.62407">
        <ele>489.780401</ele>
        <time>2021-04-23T20:13:46.020Z</time>
      </trkpt>
      <trkpt lat="43.03285" lon="0.62427">
        <ele>490.969702</ele>
        <time>2021-04-23T20:13:53.994Z</time>
      </trkpt>
      <trkpt lat="43.0329" lon="0.62454">
        <ele>492.475652</ele>
        <time>2021-04-23T20:14:05.992Z</time>
      </trkpt>
      <trkpt lat="43.03291" lon="0.62456">
        <ele>492.627287</ele>
        <time>2021-04-23T20:14:07.137Z</time>
      </trkpt>
      <trkpt lat="43.03308" lon="0.62491">
        <ele>494.959417</ele>
        <time>2021-04-23T20:14:23.960Z</time>
      </trkpt>
      <trkpt lat="43.03319" lon="0.62508">
        <ele>496.178185</ele>
        <time>2021-04-23T20:14:30.890Z</time>
      </trkpt>
      <trkpt lat="43.03333" lon="0.62523">
        <ele>497.521597</ele>
        <time>2021-04-23T20:14:41.806Z</time>
      </trkpt>
      <trkpt lat="43.03347" lon="0.62541">
        <ele>499.013015</ele>
        <time>2021-04-23T20:14:49.943Z</time>
      </trkpt>
      <trkpt lat="43.03349" lon="0.62545">
        <ele>499.267472</ele>
        <time>2021-04-23T20:14:52.613Z</time>
      </trkpt>
      <trkpt lat="43.03355" lon="0.62558">
        <ele>500.100283</ele>
        <time>2021-04-23T20:14:59.050Z</time>
      </trkpt>
      <trkpt lat="43.03374" lon="0.62561">
        <ele>500.786151</ele>
        <time>2021-04-23T20:15:06.719Z</time>
      </trkpt>
      <trkpt lat="43.0339" lon="0.62567">
        <ele>501.359383</ele>
        <time>2021-04-23T20:15:15.648Z</time>
      </trkpt>
      <trkpt lat="43.03424" lon="0.62561">
        <ele>502.536815</ele>
        <time>2021-04-23T20:15:30.559Z</time>
      </trkpt>
      <trkpt lat="43.03456" lon="0.62561">
        <ele>503.679805</ele>
        <time>2021-04-23T20:15:43.658Z</time>
      </trkpt>
      <trkpt lat="43.03565" lon="0.62545">
        <ele>506.056492</ele>
        <time>2021-04-23T20:16:13.180Z</time>
      </trkpt>
      <trkpt lat="43.03582" lon="0.62537">
        <ele>505.881843</ele>
        <time>2021-04-23T20:16:16.638Z</time>
      </trkpt>
      <trkpt lat="43.03602" lon="0.62508">
        <ele>505.593627</ele>
        <time>2021-04-23T20:16:22.291Z</time>
      </trkpt>
      <trkpt lat="43.03632" lon="0.62449">
        <ele>505.07712</ele>
        <time>2021-04-23T20:16:32.281Z</time>
      </trkpt>
      <trkpt lat="43.03651" lon="0.62428">
        <ele>504.841565</ele>
        <time>2021-04-23T20:16:36.775Z</time>
      </trkpt>
      <trkpt lat="43.03724" lon="0.62398">
        <ele>504.317851</ele>
        <time>2021-04-23T20:16:51.289Z</time>
      </trkpt>
      <trkpt lat="43.03778" lon="0.62332">
        <ele>503.922065</ele>
        <time>2021-04-23T20:17:05.730Z</time>
      </trkpt>
      <trkpt lat="43.03851" lon="0.62269">
        <ele>503.935876</ele>
        <time>2021-04-23T20:17:28.775Z</time>
      </trkpt>
      <trkpt lat="43.03936" lon="0.62251">
        <ele>504.786655</ele>
        <time>2021-04-23T20:17:58.946Z</time>
      </trkpt>
      <trkpt lat="43.03951" lon="0.62254">
        <ele>504.939761</ele>
        <time>2021-04-23T20:18:03.221Z</time>
      </trkpt>
      <trkpt lat="43.03996" lon="0.62279">
        <ele>505.366017</ele>
        <time>2021-04-23T20:18:13.837Z</time>
      </trkpt>
      <trkpt lat="43.04071" lon="0.6233">
        <ele>501.608937</ele>
        <time>2021-04-23T20:18:27.986Z</time>
      </trkpt>
      <trkpt lat="43.04092" lon="0.62342">
        <ele>500.586574</ele>
        <time>2021-04-23T20:18:31.494Z</time>
      </trkpt>
      <trkpt lat="43.04115" lon="0.62347">
        <ele>499.531708</ele>
        <time>2021-04-23T20:18:35.133Z</time>
      </trkpt>
      <trkpt lat="43.04146" lon="0.62341">
        <ele>498.146593</ele>
        <time>2021-04-23T20:18:39.863Z</time>
      </trkpt>
      <trkpt lat="43.04152" lon="0.62331">
        <ele>497.723771</ele>
        <time>2021-04-23T20:18:41.298Z</time>
      </trkpt>
      <trkpt lat="43.04165" lon="0.62294">
        <ele>496.579446</ele>
        <time>2021-04-23T20:18:45.804Z</time>
      </trkpt>
      <trkpt lat="43.04202" lon="0.62305">
        <ele>495.237752</ele>
        <time>2021-04-23T20:18:51.214Z</time>
      </trkpt>
      <trkpt lat="43.04237" lon="0.6233">
        <ele>493.831892</ele>
        <time>2021-04-23T20:18:57.170Z</time>
      </trkpt>
      <trkpt lat="43.04298" lon="0.62406">
        <ele>491.002354</ele>
        <time>2021-04-23T20:19:12.386Z</time>
      </trkpt>
      <trkpt lat="43.0441" lon="0.62499">
        <ele>493.169239</ele>
        <time>2021-04-23T20:19:56.541Z</time>
      </trkpt>
      <trkpt lat="43.04436" lon="0.62518">
        <ele>493.655008</ele>
        <time>2021-04-23T20:20:05.209Z</time>
      </trkpt>
      <trkpt lat="43.04529" lon="0.62627">
        <ele>492.608214</ele>
        <time>2021-04-23T20:20:31.527Z</time>
      </trkpt>
      <trkpt lat="43.04593" lon="0.62705">
        <ele>491.159482</ele>
        <time>2021-04-23T20:20:45.743Z</time>
      </trkpt>
      <trkpt lat="43.04673" lon="0.62779">
        <ele>486.854419</ele>
        <time>2021-04-23T20:21:00.885Z</time>
      </trkpt>
      <trkpt lat="43.04772" lon="0.6287">
        <ele>480.935793</ele>
        <time>2021-04-23T20:21:18.520Z</time>
      </trkpt>
      <trkpt lat="43.04832" lon="0.62925">
        <ele>476.734949</ele>
        <time>2021-04-23T20:21:29.049Z</time>
      </trkpt>
      <trkpt lat="43.0504" lon="0.63098">
        <ele>464.221174</ele>
        <time>2021-04-23T20:22:05.436Z</time>
      </trkpt>
      <trkpt lat="43.05081" lon="0.63122">
        <ele>463.771428</ele>
        <time>2021-04-23T20:22:13.354Z</time>
      </trkpt>
      <trkpt lat="43.05165" lon="0.63143">
        <ele>462.888874</ele>
        <time>2021-04-23T20:22:31.656Z</time>
      </trkpt>
      <trkpt lat="43.05223" lon="0.63175">
        <ele>462.137457</ele>
        <time>2021-04-23T20:22:46.605Z</time>
      </trkpt>
      <trkpt lat="43.05255" lon="0.63205">
        <ele>461.441066</ele>
        <time>2021-04-23T20:22:55.089Z</time>
      </trkpt>
      <trkpt lat="43.05291" lon="0.6325">
        <ele>460.582113</ele>
        <time>2021-04-23T20:23:04.054Z</time>
      </trkpt>
      <trkpt lat="43.05313" lon="0.63304">
        <ele>459.783497</ele>
        <time>2021-04-23T20:23:11.668Z</time>
      </trkpt>
      <trkpt lat="43.05327" lon="0.63366">
        <ele>458.612179</ele>
        <time>2021-04-23T20:23:19.187Z</time>
      </trkpt>
      <trkpt lat="43.0535" lon="0.63412">
        <ele>457.02183</ele>
        <time>2021-04-23T20:23:25.460Z</time>
      </trkpt>
      <trkpt lat="43.05377" lon="0.63437">
        <ele>455.740457</ele>
        <time>2021-04-23T20:23:30.440Z</time>
      </trkpt>
      <trkpt lat="43.05699" lon="0.63539">
        <ele>444.808598</ele>
        <time>2021-04-23T20:24:23.027Z</time>
      </trkpt>
      <trkpt lat="43.05728" lon="0.63544">
        <ele>444.384564</ele>
        <time>2021-04-23T20:24:29.029Z</time>
      </trkpt>
      <trkpt lat="43.05779" lon="0.63535">
        <ele>443.657574</ele>
        <time>2021-04-23T20:24:39.311Z</time>
      </trkpt>
      <trkpt lat="43.05797" lon="0.63546">
        <ele>443.372898</ele>
        <time>2021-04-23T20:24:44.408Z</time>
      </trkpt>
      <trkpt lat="43.05843" lon="0.63619">
        <ele>443.054664</ele>
        <time>2021-04-23T20:25:00.359Z</time>
      </trkpt>
      <trkpt lat="43.05857" lon="0.63631">
        <ele>443.042593</ele>
        <time>2021-04-23T20:25:03.615Z</time>
      </trkpt>
      <trkpt lat="43.05903" lon="0.63647">
        <ele>443.008889</ele>
        <time>2021-04-23T20:25:15.594Z</time>
      </trkpt>
      <trkpt lat="43.05941" lon="0.63635">
        <ele>442.981219</ele>
        <time>2021-04-23T20:25:24.317Z</time>
      </trkpt>
      <trkpt lat="43.05966" lon="0.63627">
        <ele>442.963222</ele>
        <time>2021-04-23T20:25:29.077Z</time>
      </trkpt>
      <trkpt lat="43.05984" lon="0.63621">
        <ele>442.720063</ele>
        <time>2021-04-23T20:25:33.074Z</time>
      </trkpt>
      <trkpt lat="43.06021" lon="0.63622">
        <ele>442.23518</ele>
        <time>2021-04-23T20:25:39.998Z</time>
      </trkpt>
      <trkpt lat="43.06064" lon="0.63637">
        <ele>441.64427</ele>
        <time>2021-04-23T20:25:48.127Z</time>
      </trkpt>
      <trkpt lat="43.06219" lon="0.63713">
        <ele>439.032102</ele>
        <time>2021-04-23T20:26:17.893Z</time>
      </trkpt>
      <trkpt lat="43.06271" lon="0.63738">
        <ele>438.016848</ele>
        <time>2021-04-23T20:26:27.527Z</time>
      </trkpt>
      <trkpt lat="43.06413" lon="0.63844">
        <ele>434.376029</ele>
        <time>2021-04-23T20:26:56.320Z</time>
      </trkpt>
      <trkpt lat="43.06506" lon="0.63954">
        <ele>430.37229</ele>
        <time>2021-04-23T20:27:16.112Z</time>
      </trkpt>
      <trkpt lat="43.06539" lon="0.64">
        <ele>428.445573</ele>
        <time>2021-04-23T20:27:23.440Z</time>
      </trkpt>
      <trkpt lat="43.06574" lon="0.64045">
        <ele>426.451858</ele>
        <time>2021-04-23T20:27:30.849Z</time>
      </trkpt>
      <trkpt lat="43.06641" lon="0.64087">
        <ele>423.809904</ele>
        <time>2021-04-23T20:27:42.026Z</time>
      </trkpt>
      <trkpt lat="43.06708" lon="0.64113">
        <ele>421.405143</ele>
        <time>2021-04-23T20:27:53.156Z</time>
      </trkpt>
      <trkpt lat="43.06717" lon="0.64121">
        <ele>421.055682</ele>
        <time>2021-04-23T20:27:54.887Z</time>
      </trkpt>
      <trkpt lat="43.06744" lon="0.64149">
        <ele>419.882746</ele>
        <time>2021-04-23T20:28:00.774Z</time>
      </trkpt>
      <trkpt lat="43.06841" lon="0.64306">
        <ele>417.597257</ele>
        <time>2021-04-23T20:28:28.716Z</time>
      </trkpt>
      <trkpt lat="43.06866" lon="0.64334">
        <ele>417.171141</ele>
        <time>2021-04-23T20:28:34.958Z</time>
      </trkpt>
      <trkpt lat="43.06902" lon="0.64345">
        <ele>416.738204</ele>
        <time>2021-04-23T20:28:42.286Z</time>
      </trkpt>
      <trkpt lat="43.06934" lon="0.64349">
        <ele>416.394496</ele>
        <time>2021-04-23T20:28:48.486Z</time>
      </trkpt>
      <trkpt lat="43.06946" lon="0.6436">
        <ele>416.237455</ele>
        <time>2021-04-23T20:28:51.357Z</time>
      </trkpt>
      <trkpt lat="43.0703" lon="0.64436">
        <ele>415.167374</ele>
        <time>2021-04-23T20:29:10.384Z</time>
      </trkpt>
      <trkpt lat="43.07132" lon="0.64547">
        <ele>413.55331</ele>
        <time>2021-04-23T20:29:35.125Z</time>
      </trkpt>
      <trkpt lat="43.07194" lon="0.64626">
        <ele>412.433641</ele>
        <time>2021-04-23T20:29:51.005Z</time>
      </trkpt>
      <trkpt lat="43.07252" lon="0.64721">
        <ele>411.126401</ele>
        <time>2021-04-23T20:30:07.488Z</time>
      </trkpt>
      <trkpt lat="43.07277" lon="0.64777">
        <ele>410.424974</ele>
        <time>2021-04-23T20:30:16.307Z</time>
      </trkpt>
      <trkpt lat="43.07293" lon="0.64808">
        <ele>410.053927</ele>
        <time>2021-04-23T20:30:21.425Z</time>
      </trkpt>
      <trkpt lat="43.07322" lon="0.6489">
        <ele>409.225338</ele>
        <time>2021-04-23T20:30:33.695Z</time>
      </trkpt>
      <trkpt lat="43.07403" lon="0.65015">
        <ele>407.827771</ele>
        <time>2021-04-23T20:30:57.026Z</time>
      </trkpt>
      <trkpt lat="43.07414" lon="0.65035">
        <ele>407.69102</ele>
        <time>2021-04-23T20:31:00.624Z</time>
      </trkpt>
      <trkpt lat="43.07458" lon="0.65189">
        <ele>406.783866</ele>
        <time>2021-04-23T20:31:25.025Z</time>
      </trkpt>
      <trkpt lat="43.07546" lon="0.65545">
        <ele>405.465259</ele>
        <time>2021-04-23T20:32:21.606Z</time>
      </trkpt>
      <trkpt lat="43.07567" lon="0.65639">
        <ele>405.183596</ele>
        <time>2021-04-23T20:32:36.893Z</time>
      </trkpt>
      <trkpt lat="43.0757" lon="0.65649">
        <ele>405.151698</ele>
        <time>2021-04-23T20:32:38.557Z</time>
      </trkpt>
      <trkpt lat="43.07585" lon="0.65704">
        <ele>404.92968</ele>
        <time>2021-04-23T20:32:47.542Z</time>
      </trkpt>
      <trkpt lat="43.07615" lon="0.65782">
        <ele>404.510042</ele>
        <time>2021-04-23T20:33:00.923Z</time>
      </trkpt>
      <trkpt lat="43.07631" lon="0.65812">
        <ele>404.334461</ele>
        <time>2021-04-23T20:33:06.398Z</time>
      </trkpt>
      <trkpt lat="43.07666" lon="0.65878">
        <ele>403.95117</ele>
        <time>2021-04-23T20:33:17.745Z</time>
      </trkpt>
      <trkpt lat="43.07721" lon="0.66014">
        <ele>403.135567</ele>
        <time>2021-04-23T20:33:40.217Z</time>
      </trkpt>
      <trkpt lat="43.07739" lon="0.66052">
        <ele>402.900405</ele>
        <time>2021-04-23T20:33:46.712Z</time>
      </trkpt>
      <trkpt lat="43.07762" lon="0.66101">
        <ele>402.60145</ele>
        <time>2021-04-23T20:33:55.607Z</time>
      </trkpt>
      <trkpt lat="43.07908" lon="0.66397">
        <ele>401.923395</ele>
        <time>2021-04-23T20:34:51.999Z</time>
      </trkpt>
      <trkpt lat="43.07934" lon="0.66466">
        <ele>401.715944</ele>
        <time>2021-04-23T20:35:03.839Z</time>
      </trkpt>
      <trkpt lat="43.07979" lon="0.666">
        <ele>400.831693</ele>
        <time>2021-04-23T20:35:25.505Z</time>
      </trkpt>
      <trkpt lat="43.08017" lon="0.66674">
        <ele>400.113166</ele>
        <time>2021-04-23T20:35:38.021Z</time>
      </trkpt>
      <trkpt lat="43.08025" lon="0.66717">
        <ele>399.763446</ele>
        <time>2021-04-23T20:35:43.976Z</time>
      </trkpt>
      <trkpt lat="43.08048" lon="0.66865">
        <ele>398.10248</ele>
        <time>2021-04-23T20:36:04.257Z</time>
      </trkpt>
      <trkpt lat="43.08052" lon="0.66889">
        <ele>397.832956</ele>
        <time>2021-04-23T20:36:07.367Z</time>
      </trkpt>
      <trkpt lat="43.08064" lon="0.66954">
        <ele>397.06558</ele>
        <time>2021-04-23T20:36:16.372Z</time>
      </trkpt>
      <trkpt lat="43.08067" lon="0.66963">
        <ele>396.955701</ele>
        <time>2021-04-23T20:36:17.592Z</time>
      </trkpt>
      <trkpt lat="43.08066" lon="0.66971">
        <ele>396.865891</ele>
        <time>2021-04-23T20:36:18.671Z</time>
      </trkpt>
      <trkpt lat="43.08071" lon="0.66993">
        <ele>396.648711</ele>
        <time>2021-04-23T20:36:21.712Z</time>
      </trkpt>
      <trkpt lat="43.08081" lon="0.67049">
        <ele>396.117275</ele>
        <time>2021-04-23T20:36:29.548Z</time>
      </trkpt>
      <trkpt lat="43.08095" lon="0.67125">
        <ele>395.392837</ele>
        <time>2021-04-23T20:36:40.466Z</time>
      </trkpt>
      <trkpt lat="43.08098" lon="0.67133">
        <ele>395.306907</ele>
        <time>2021-04-23T20:36:41.748Z</time>
      </trkpt>
      <trkpt lat="43.081" lon="0.67143">
        <ele>395.207384</ele>
        <time>2021-04-23T20:36:43.313Z</time>
      </trkpt>
      <trkpt lat="43.08102" lon="0.67157">
        <ele>395.078407</ele>
        <time>2021-04-23T20:36:45.191Z</time>
      </trkpt>
      <trkpt lat="43.08106" lon="0.67184">
        <ele>394.823439</ele>
        <time>2021-04-23T20:36:49.168Z</time>
      </trkpt>
      <trkpt lat="43.08109" lon="0.67197">
        <ele>394.69378</ele>
        <time>2021-04-23T20:36:51.151Z</time>
      </trkpt>
      <trkpt lat="43.08195" lon="0.67462">
        <ele>391.768926</ele>
        <time>2021-04-23T20:37:30.337Z</time>
      </trkpt>
      <trkpt lat="43.08201" lon="0.67479">
        <ele>391.575533</ele>
        <time>2021-04-23T20:37:32.897Z</time>
      </trkpt>
      <trkpt lat="43.08221" lon="0.6754">
        <ele>390.895954</ele>
        <time>2021-04-23T20:37:41.872Z</time>
      </trkpt>
      <trkpt lat="43.08233" lon="0.6758">
        <ele>390.453414</ele>
        <time>2021-04-23T20:37:47.829Z</time>
      </trkpt>
      <trkpt lat="43.08253" lon="0.67652">
        <ele>389.67847</ele>
        <time>2021-04-23T20:37:58.112Z</time>
      </trkpt>
      <trkpt lat="43.0829" lon="0.67789">
        <ele>388.359079</ele>
        <time>2021-04-23T20:38:18.510Z</time>
      </trkpt>
      <trkpt lat="43.08302" lon="0.67826">
        <ele>387.998469</ele>
        <time>2021-04-23T20:38:24.207Z</time>
      </trkpt>
      <trkpt lat="43.08362" lon="0.68059">
        <ele>385.688931</ele>
        <time>2021-04-23T20:38:57.903Z</time>
      </trkpt>
      <trkpt lat="43.08375" lon="0.68092">
        <ele>385.332057</ele>
        <time>2021-04-23T20:39:03.087Z</time>
      </trkpt>
      <trkpt lat="43.08381" lon="0.681">
        <ele>385.228577</ele>
        <time>2021-04-23T20:39:04.559Z</time>
      </trkpt>
      <trkpt lat="43.0839" lon="0.6811">
        <ele>385.078644</ele>
        <time>2021-04-23T20:39:06.685Z</time>
      </trkpt>
      <trkpt lat="43.08464" lon="0.68173">
        <ele>384.225681</ele>
        <time>2021-04-23T20:39:23.452Z</time>
      </trkpt>
      <trkpt lat="43.0847" lon="0.68178">
        <ele>384.15502</ele>
        <time>2021-04-23T20:39:24.887Z</time>
      </trkpt>
      <trkpt lat="43.08593" lon="0.6828">
        <ele>382.850079</ele>
        <time>2021-04-23T20:39:53.005Z</time>
      </trkpt>
      <trkpt lat="43.08617" lon="0.68306">
        <ele>382.599906</ele>
        <time>2021-04-23T20:39:59.037Z</time>
      </trkpt>
      <trkpt lat="43.08646" lon="0.68338">
        <ele>382.287597</ele>
        <time>2021-04-23T20:40:06.515Z</time>
      </trkpt>
      <trkpt lat="43.08656" lon="0.6835">
        <ele>382.177577</ele>
        <time>2021-04-23T20:40:09.081Z</time>
      </trkpt>
      <trkpt lat="43.0866" lon="0.68355">
        <ele>382.132126</ele>
        <time>2021-04-23T20:40:10.183Z</time>
      </trkpt>
      <trkpt lat="43.08802" lon="0.68503">
        <ele>380.745434</ele>
        <time>2021-04-23T20:40:45.498Z</time>
      </trkpt>
      <trkpt lat="43.08968" lon="0.68677">
        <ele>379.304253</ele>
        <time>2021-04-23T20:41:27.462Z</time>
      </trkpt>
      <trkpt lat="43.08985" lon="0.68706">
        <ele>379.144352</ele>
        <time>2021-04-23T20:41:32.795Z</time>
      </trkpt>
      <trkpt lat="43.09121" lon="0.6873">
        <ele>378.414061</ele>
        <time>2021-04-23T20:42:01.895Z</time>
      </trkpt>
      <trkpt lat="43.09241" lon="0.68746">
        <ele>378.170444</ele>
        <time>2021-04-23T20:42:28.787Z</time>
      </trkpt>
      <trkpt lat="43.09308" lon="0.68742">
        <ele>378.101673</ele>
        <time>2021-04-23T20:42:44.668Z</time>
      </trkpt>
      <trkpt lat="43.09434" lon="0.68747">
        <ele>377.947527</ele>
        <time>2021-04-23T20:43:14.121Z</time>
      </trkpt>
      <trkpt lat="43.09439" lon="0.68747">
        <ele>377.94149</ele>
        <time>2021-04-23T20:43:15.433Z</time>
      </trkpt>
      <trkpt lat="43.09444" lon="0.68747">
        <ele>377.935829</ele>
        <time>2021-04-23T20:43:16.313Z</time>
      </trkpt>
      <trkpt lat="43.09488" lon="0.68755">
        <ele>377.879152</ele>
        <time>2021-04-23T20:43:26.391Z</time>
      </trkpt>
      <trkpt lat="43.09518" lon="0.688">
        <ele>377.684489</ele>
        <time>2021-04-23T20:43:35.603Z</time>
      </trkpt>
      <trkpt lat="43.09523" lon="0.68866">
        <ele>377.337771</ele>
        <time>2021-04-23T20:43:46.001Z</time>
      </trkpt>
      <trkpt lat="43.09539" lon="0.68936">
        <ele>376.957729</ele>
        <time>2021-04-23T20:43:56.914Z</time>
      </trkpt>
      <trkpt lat="43.09539" lon="0.68941">
        <ele>376.933322</ele>
        <time>2021-04-23T20:43:57.568Z</time>
      </trkpt>
      <trkpt lat="43.09539" lon="0.68949">
        <ele>376.8902</ele>
        <time>2021-04-23T20:43:58.903Z</time>
      </trkpt>
      <trkpt lat="43.0954" lon="0.68972">
        <ele>376.772415</ele>
        <time>2021-04-23T20:44:02.519Z</time>
      </trkpt>
      <trkpt lat="43.09547" lon="0.68975">
        <ele>376.721695</ele>
        <time>2021-04-23T20:44:03.869Z</time>
      </trkpt>
      <trkpt lat="43.09565" lon="0.6898">
        <ele>376.59376</ele>
        <time>2021-04-23T20:44:07.663Z</time>
      </trkpt>
      <trkpt lat="43.09663" lon="0.69009">
        <ele>375.717172</ele>
        <time>2021-04-23T20:44:28.325Z</time>
      </trkpt>
      <trkpt lat="43.09671" lon="0.69">
        <ele>375.618694</ele>
        <time>2021-04-23T20:44:30.706Z</time>
      </trkpt>
      <trkpt lat="43.09675" lon="0.68987">
        <ele>375.533497</ele>
        <time>2021-04-23T20:44:32.675Z</time>
      </trkpt>
      <trkpt lat="43.09687" lon="0.68913">
        <ele>375.042709</ele>
        <time>2021-04-23T20:44:43.947Z</time>
      </trkpt>
      <trkpt lat="43.0969" lon="0.68911">
        <ele>375.012567</ele>
        <time>2021-04-23T20:44:44.754Z</time>
      </trkpt>
      <trkpt lat="43.09701" lon="0.68913">
        <ele>374.913955</ele>
        <time>2021-04-23T20:44:46.814Z</time>
      </trkpt>
      <trkpt lat="43.09705" lon="0.68914">
        <ele>374.868345</ele>
        <time>2021-04-23T20:44:47.868Z</time>
      </trkpt>
      <trkpt lat="43.09727" lon="0.68923">
        <ele>374.645305</ele>
        <time>2021-04-23T20:44:52.478Z</time>
      </trkpt>
      <trkpt lat="43.09735" lon="0.68927">
        <ele>374.561193</ele>
        <time>2021-04-23T20:44:54.211Z</time>
      </trkpt>
      <trkpt lat="43.09746" lon="0.68871">
        <ele>374.145369</ele>
        <time>2021-04-23T20:45:02.724Z</time>
      </trkpt>
      <trkpt lat="43.09783" lon="0.68741">
        <ele>373.231189</ele>
        <time>2021-04-23T20:45:23.210Z</time>
      </trkpt>
      <trkpt lat="43.0979" lon="0.68727">
        <ele>373.209946</ele>
        <time>2021-04-23T20:45:25.791Z</time>
      </trkpt>
      <trkpt lat="43.09831" lon="0.68523">
        <ele>372.954298</ele>
        <time>2021-04-23T20:46:01.042Z</time>
      </trkpt>
      <trkpt lat="43.09876" lon="0.68283">
        <ele>373.938649</ele>
        <time>2021-04-23T20:46:47.230Z</time>
      </trkpt>
      <trkpt lat="43.09879" lon="0.68235">
        <ele>374.251692</ele>
        <time>2021-04-23T20:46:56.712Z</time>
      </trkpt>
      <trkpt lat="43.09896" lon="0.68141">
        <ele>374.906581</ele>
        <time>2021-04-23T20:47:16.395Z</time>
      </trkpt>
      <trkpt lat="43.099" lon="0.68128">
        <ele>374.999062</ele>
        <time>2021-04-23T20:47:19.258Z</time>
      </trkpt>
      <trkpt lat="43.10005" lon="0.67999">
        <ele>375.932104</ele>
        <time>2021-04-23T20:47:56.522Z</time>
      </trkpt>
      <trkpt lat="43.10046" lon="0.67909">
        <ele>376.264657</ele>
        <time>2021-04-23T20:48:14.995Z</time>
      </trkpt>
      <trkpt lat="43.10052" lon="0.67882">
        <ele>376.353111</ele>
        <time>2021-04-23T20:48:19.721Z</time>
      </trkpt>
      <trkpt lat="43.10066" lon="0.67825">
        <ele>376.552639</ele>
        <time>2021-04-23T20:48:30.155Z</time>
      </trkpt>
      <trkpt lat="43.10072" lon="0.67809">
        <ele>376.610562</ele>
        <time>2021-04-23T20:48:33.325Z</time>
      </trkpt>
      <trkpt lat="43.10096" lon="0.67776">
        <ele>376.764695</ele>
        <time>2021-04-23T20:48:41.422Z</time>
      </trkpt>
      <trkpt lat="43.101" lon="0.67759">
        <ele>376.824037</ele>
        <time>2021-04-23T20:48:44.500Z</time>
      </trkpt>
      <trkpt lat="43.10099" lon="0.67712">
        <ele>376.980527</ele>
        <time>2021-04-23T20:48:53.030Z</time>
      </trkpt>
      <trkpt lat="43.10118" lon="0.67635">
        <ele>377.33456</ele>
        <time>2021-04-23T20:49:08.810Z</time>
      </trkpt>
      <trkpt lat="43.10132" lon="0.67551">
        <ele>378.160534</ele>
        <time>2021-04-23T20:49:27.240Z</time>
      </trkpt>
      <trkpt lat="43.10132" lon="0.67503">
        <ele>378.611902</ele>
        <time>2021-04-23T20:49:37.294Z</time>
      </trkpt>
      <trkpt lat="43.10086" lon="0.67378">
        <ele>379.828203</ele>
        <time>2021-04-23T20:50:06.656Z</time>
      </trkpt>
      <trkpt lat="43.10071" lon="0.67272">
        <ele>380.548338</ele>
        <time>2021-04-23T20:50:28.020Z</time>
      </trkpt>
      <trkpt lat="43.10089" lon="0.6719">
        <ele>381.125694</ele>
        <time>2021-04-23T20:50:44.335Z</time>
      </trkpt>
      <trkpt lat="43.10111" lon="0.67146">
        <ele>381.28174</ele>
        <time>2021-04-23T20:50:54.081Z</time>
      </trkpt>
      <trkpt lat="43.1011" lon="0.67114">
        <ele>381.345746</ele>
        <time>2021-04-23T20:50:59.936Z</time>
      </trkpt>
      <trkpt lat="43.10068" lon="0.67015">
        <ele>381.572556</ele>
        <time>2021-04-23T20:51:20.207Z</time>
      </trkpt>
      <trkpt lat="43.10033" lon="0.66882">
        <ele>381.700355</ele>
        <time>2021-04-23T20:51:44.247Z</time>
      </trkpt>
      <trkpt lat="43.10034" lon="0.6686">
        <ele>381.704641</ele>
        <time>2021-04-23T20:51:47.949Z</time>
      </trkpt>
      <trkpt lat="43.1004" lon="0.66859">
        <ele>381.706204</ele>
        <time>2021-04-23T20:51:49.456Z</time>
      </trkpt>
      <trkpt lat="43.10126" lon="0.66838">
        <ele>381.729085</ele>
        <time>2021-04-23T20:52:09.648Z</time>
      </trkpt>
      <trkpt lat="43.1028" lon="0.66731">
        <ele>381.972461</ele>
        <time>2021-04-23T20:52:50.227Z</time>
      </trkpt>
      <trkpt lat="43.10297" lon="0.66712">
        <ele>382.027492</ele>
        <time>2021-04-23T20:52:55.337Z</time>
      </trkpt>
      <trkpt lat="43.10296" lon="0.66695">
        <ele>382.109262</ele>
        <time>2021-04-23T20:52:58.567Z</time>
      </trkpt>
      <trkpt lat="43.10264" lon="0.66651">
        <ele>382.389173</ele>
        <time>2021-04-23T20:53:09.858Z</time>
      </trkpt>
      <trkpt lat="43.10224" lon="0.66535">
        <ele>382.978193</ele>
        <time>2021-04-23T20:53:34.517Z</time>
      </trkpt>
      <trkpt lat="43.10219" lon="0.66427">
        <ele>383.576736</ele>
        <time>2021-04-23T20:53:55.552Z</time>
      </trkpt>
      <trkpt lat="43.10241" lon="0.66319">
        <ele>384.247364</ele>
        <time>2021-04-23T20:54:17.311Z</time>
      </trkpt>
      <trkpt lat="43.10256" lon="0.6629">
        <ele>384.462296</ele>
        <time>2021-04-23T20:54:24.201Z</time>
      </trkpt>
      <trkpt lat="43.1028" lon="0.66246">
        <ele>384.743573</ele>
        <time>2021-04-23T20:54:34.611Z</time>
      </trkpt>
      <trkpt lat="43.10476" lon="0.66064">
        <ele>386.14386</ele>
        <time>2021-04-23T20:55:34.973Z</time>
      </trkpt>
      <trkpt lat="43.1052" lon="0.66001">
        <ele>386.475149</ele>
        <time>2021-04-23T20:55:51.067Z</time>
      </trkpt>
      <trkpt lat="43.10523" lon="0.65913">
        <ele>386.785208</ele>
        <time>2021-04-23T20:56:07.396Z</time>
      </trkpt>
      <trkpt lat="43.10368" lon="0.65239">
        <ele>389.013326</ele>
        <time>2021-04-23T20:58:15.809Z</time>
      </trkpt>
      <trkpt lat="43.10293" lon="0.64913">
        <ele>390.184199</ele>
        <time>2021-04-23T20:59:18.715Z</time>
      </trkpt>
      <trkpt lat="43.10203" lon="0.64631">
        <ele>391.319832</ele>
        <time>2021-04-23T21:00:15.033Z</time>
      </trkpt>
      <trkpt lat="43.09939" lon="0.64063">
        <ele>394.86354</ele>
        <time>2021-04-23T21:02:23.113Z</time>
      </trkpt>
      <trkpt lat="43.09829" lon="0.63865">
        <ele>396.251728</ele>
        <time>2021-04-23T21:03:11.713Z</time>
      </trkpt>
      <trkpt lat="43.09801" lon="0.63834">
        <ele>396.500306</ele>
        <time>2021-04-23T21:03:21.041Z</time>
      </trkpt>
      <trkpt lat="43.09792" lon="0.63823">
        <ele>396.578667</ele>
        <time>2021-04-23T21:03:23.972Z</time>
      </trkpt>
      <trkpt lat="43.09697" lon="0.63715">
        <ele>397.57122</ele>
        <time>2021-04-23T21:03:55.050Z</time>
      </trkpt>
      <trkpt lat="43.09671" lon="0.63686">
        <ele>397.869392</ele>
        <time>2021-04-23T21:04:03.818Z</time>
      </trkpt>
      <trkpt lat="43.09625" lon="0.63611">
        <ele>398.512238</ele>
        <time>2021-04-23T21:04:23.688Z</time>
      </trkpt>
      <trkpt lat="43.09564" lon="0.63507">
        <ele>399.985001</ele>
        <time>2021-04-23T21:04:52.645Z</time>
      </trkpt>
      <trkpt lat="43.09548" lon="0.63487">
        <ele>400.319227</ele>
        <time>2021-04-23T21:04:58.953Z</time>
      </trkpt>
      <trkpt lat="43.09439" lon="0.63435">
        <ele>402.013235</ele>
        <time>2021-04-23T21:05:33.473Z</time>
      </trkpt>
      <trkpt lat="43.09368" lon="0.63399">
        <ele>402.988153</ele>
        <time>2021-04-23T21:05:54.447Z</time>
      </trkpt>
      <trkpt lat="43.09324" lon="0.63367">
        <ele>403.636441</ele>
        <time>2021-04-23T21:06:08.375Z</time>
      </trkpt>
      <trkpt lat="43.09273" lon="0.63267">
        <ele>404.766456</ele>
        <time>2021-04-23T21:06:33.291Z</time>
      </trkpt>
      <trkpt lat="43.09256" lon="0.63242">
        <ele>405.078168</ele>
        <time>2021-04-23T21:06:40.953Z</time>
      </trkpt>
      <trkpt lat="43.09161" lon="0.63184">
        <ele>406.263703</ele>
        <time>2021-04-23T21:07:09.663Z</time>
      </trkpt>
      <trkpt lat="43.09123" lon="0.63144">
        <ele>406.66024</ele>
        <time>2021-04-23T21:07:22.816Z</time>
      </trkpt>
      <trkpt lat="43.09095" lon="0.631">
        <ele>407.003435</ele>
        <time>2021-04-23T21:07:33.776Z</time>
      </trkpt>
      <trkpt lat="43.09068" lon="0.63043">
        <ele>407.412943</ele>
        <time>2021-04-23T21:07:46.571Z</time>
      </trkpt>
      <trkpt lat="43.0902" lon="0.6285">
        <ele>408.196498</ele>
        <time>2021-04-23T21:08:23.810Z</time>
      </trkpt>
      <trkpt lat="43.08994" lon="0.62787">
        <ele>408.469014</ele>
        <time>2021-04-23T21:08:37.369Z</time>
      </trkpt>
      <trkpt lat="43.08968" lon="0.62725">
        <ele>408.756365</ele>
        <time>2021-04-23T21:08:50.711Z</time>
      </trkpt>
      <trkpt lat="43.08947" lon="0.62662">
        <ele>409.035661</ele>
        <time>2021-04-23T21:09:03.739Z</time>
      </trkpt>
      <trkpt lat="43.08929" lon="0.62481">
        <ele>409.831394</ele>
        <time>2021-04-23T21:09:37.255Z</time>
      </trkpt>
      <trkpt lat="43.08919" lon="0.62421">
        <ele>410.122064</ele>
        <time>2021-04-23T21:09:48.710Z</time>
      </trkpt>
      <trkpt lat="43.08822" lon="0.62116">
        <ele>412.046594</ele>
        <time>2021-04-23T21:10:53.183Z</time>
      </trkpt>
      <trkpt lat="43.08772" lon="0.6194">
        <ele>413.41647</ele>
        <time>2021-04-23T21:11:30.816Z</time>
      </trkpt>
      <trkpt lat="43.08762" lon="0.61898">
        <ele>413.738951</ele>
        <time>2021-04-23T21:11:39.665Z</time>
      </trkpt>
      <trkpt lat="43.08753" lon="0.61837">
        <ele>414.195667</ele>
        <time>2021-04-23T21:11:51.586Z</time>
      </trkpt>
      <trkpt lat="43.08741" lon="0.61777">
        <ele>414.659782</ele>
        <time>2021-04-23T21:12:03.820Z</time>
      </trkpt>
      <trkpt lat="43.0873" lon="0.61732">
        <ele>415.014391</ele>
        <time>2021-04-23T21:12:13.155Z</time>
      </trkpt>
      <trkpt lat="43.08726" lon="0.61723">
        <ele>415.092076</ele>
        <time>2021-04-23T21:12:15.360Z</time>
      </trkpt>
      <trkpt lat="43.08715" lon="0.61726">
        <ele>415.207998</ele>
        <time>2021-04-23T21:12:19.090Z</time>
      </trkpt>
      <trkpt lat="43.08703" lon="0.61722">
        <ele>415.342317</ele>
        <time>2021-04-23T21:12:23.376Z</time>
      </trkpt>
      <trkpt lat="43.08715" lon="0.61726">
        <ele>415.476637</ele>
        <time>2021-04-23T21:12:27.830Z</time>
      </trkpt>
      <trkpt lat="43.08726" lon="0.61723">
        <ele>415.592558</ele>
        <time>2021-04-23T21:12:31.519Z</time>
      </trkpt>
      <trkpt lat="43.08692" lon="0.61634">
        <ele>416.033268</ele>
        <time>2021-04-23T21:12:50.097Z</time>
      </trkpt>
      <trkpt lat="43.08676" lon="0.61593">
        <ele>416.20807</ele>
        <time>2021-04-23T21:12:58.346Z</time>
      </trkpt>
      <trkpt lat="43.08648" lon="0.61497">
        <ele>416.603394</ele>
        <time>2021-04-23T21:13:16.571Z</time>
      </trkpt>
      <trkpt lat="43.08598" lon="0.61334">
        <ele>416.711954</ele>
        <time>2021-04-23T21:13:45.689Z</time>
      </trkpt>
      <trkpt lat="43.08549" lon="0.6121">
        <ele>416.774923</ele>
        <time>2021-04-23T21:14:08.192Z</time>
      </trkpt>
      <trkpt lat="43.08524" lon="0.61144">
        <ele>416.814443</ele>
        <time>2021-04-23T21:14:20.319Z</time>
      </trkpt>
      <trkpt lat="43.08492" lon="0.6108">
        <ele>416.855294</ele>
        <time>2021-04-23T21:14:33.130Z</time>
      </trkpt>
      <trkpt lat="43.0841" lon="0.60963">
        <ele>417.187538</ele>
        <time>2021-04-23T21:15:00.787Z</time>
      </trkpt>
      <trkpt lat="43.0837" lon="0.60874">
        <ele>417.444282</ele>
        <time>2021-04-23T21:15:19.028Z</time>
      </trkpt>
      <trkpt lat="43.08298" lon="0.60693">
        <ele>418.222329</ele>
        <time>2021-04-23T21:15:55.792Z</time>
      </trkpt>
      <trkpt lat="43.08222" lon="0.60479">
        <ele>419.147808</ele>
        <time>2021-04-23T21:16:38.633Z</time>
      </trkpt>
      <trkpt lat="43.08169" lon="0.60375">
        <ele>419.646191</ele>
        <time>2021-04-23T21:17:00.821Z</time>
      </trkpt>
      <trkpt lat="43.08128" lon="0.60311">
        <ele>419.980803</ele>
        <time>2021-04-23T21:17:15.551Z</time>
      </trkpt>
      <trkpt lat="43.08081" lon="0.60237">
        <ele>420.376464</ele>
        <time>2021-04-23T21:17:33.421Z</time>
      </trkpt>
      <trkpt lat="43.08034" lon="0.60165">
        <ele>421.174832</ele>
        <time>2021-04-23T21:17:51.487Z</time>
      </trkpt>
      <trkpt lat="43.07999" lon="0.60113">
        <ele>421.765558</ele>
        <time>2021-04-23T21:18:05.933Z</time>
      </trkpt>
      <trkpt lat="43.07979" lon="0.60064">
        <ele>422.233324</ele>
        <time>2021-04-23T21:18:17.483Z</time>
      </trkpt>
      <trkpt lat="43.07962" lon="0.59979">
        <ele>423.062635</ele>
        <time>2021-04-23T21:18:35.198Z</time>
      </trkpt>
      <trkpt lat="43.07937" lon="0.5988">
        <ele>424.104615</ele>
        <time>2021-04-23T21:18:56.497Z</time>
      </trkpt>
      <trkpt lat="43.07926" lon="0.59803">
        <ele>424.877156</ele>
        <time>2021-04-23T21:19:11.989Z</time>
      </trkpt>
      <trkpt lat="43.07914" lon="0.59748">
        <ele>425.46809</ele>
        <time>2021-04-23T21:19:23.935Z</time>
      </trkpt>
      <trkpt lat="43.07911" lon="0.59696">
        <ele>426.004414</ele>
        <time>2021-04-23T21:19:34.580Z</time>
      </trkpt>
      <trkpt lat="43.07908" lon="0.59616">
        <ele>426.832603</ele>
        <time>2021-04-23T21:19:51.031Z</time>
      </trkpt>
      <trkpt lat="43.07905" lon="0.59594">
        <ele>427.06973</ele>
        <time>2021-04-23T21:19:55.525Z</time>
      </trkpt>
      <trkpt lat="43.07903" lon="0.59578">
        <ele>427.227546</ele>
        <time>2021-04-23T21:19:59.031Z</time>
      </trkpt>
      <trkpt lat="43.07898" lon="0.59558">
        <ele>427.441473</ele>
        <time>2021-04-23T21:20:03.075Z</time>
      </trkpt>
      <trkpt lat="43.07886" lon="0.59546">
        <ele>427.606798</ele>
        <time>2021-04-23T21:20:07.309Z</time>
      </trkpt>
      <trkpt lat="43.0787" lon="0.59541">
        <ele>427.792453</ele>
        <time>2021-04-23T21:20:11.487Z</time>
      </trkpt>
      <trkpt lat="43.07861" lon="0.59528">
        <ele>427.945229</ele>
        <time>2021-04-23T21:20:15.020Z</time>
      </trkpt>
      <trkpt lat="43.07859" lon="0.59517">
        <ele>428.038025</ele>
        <time>2021-04-23T21:20:17.683Z</time>
      </trkpt>
      <trkpt lat="43.07863" lon="0.59502">
        <ele>428.17219</ele>
        <time>2021-04-23T21:20:20.571Z</time>
      </trkpt>
      <trkpt lat="43.07886" lon="0.59477">
        <ele>428.507578</ele>
        <time>2021-04-23T21:20:28.859Z</time>
      </trkpt>
      <trkpt lat="43.07892" lon="0.59459">
        <ele>428.679812</ele>
        <time>2021-04-23T21:20:32.626Z</time>
      </trkpt>
      <trkpt lat="43.07888" lon="0.59425">
        <ele>428.97112</ele>
        <time>2021-04-23T21:20:39.793Z</time>
      </trkpt>
      <trkpt lat="43.07862" lon="0.59373">
        <ele>429.476091</ele>
        <time>2021-04-23T21:20:51.260Z</time>
      </trkpt>
      <trkpt lat="43.0781" lon="0.59373">
        <ele>429.882707</ele>
        <time>2021-04-23T21:21:05.016Z</time>
      </trkpt>
      <trkpt lat="43.07754" lon="0.5937">
        <ele>430.315904</ele>
        <time>2021-04-23T21:21:19.453Z</time>
      </trkpt>
      <trkpt lat="43.07688" lon="0.59383">
        <ele>430.829684</ele>
        <time>2021-04-23T21:21:36.799Z</time>
      </trkpt>
      <trkpt lat="43.07552" lon="0.59374">
        <ele>431.826551</ele>
        <time>2021-04-23T21:22:12.830Z</time>
      </trkpt>
      <trkpt lat="43.07515" lon="0.59382">
        <ele>432.101811</ele>
        <time>2021-04-23T21:22:22.410Z</time>
      </trkpt>
      <trkpt lat="43.07496" lon="0.59387">
        <ele>432.142733</ele>
        <time>2021-04-23T21:22:27.327Z</time>
      </trkpt>
      <trkpt lat="43.07491" lon="0.59389">
        <ele>432.133996</ele>
        <time>2021-04-23T21:22:28.840Z</time>
      </trkpt>
      <trkpt lat="43.07486" lon="0.59356">
        <ele>432.097726</ele>
        <time>2021-04-23T21:22:34.767Z</time>
      </trkpt>
      <trkpt lat="43.07461" lon="0.59353">
        <ele>432.059782</ele>
        <time>2021-04-23T21:22:40.720Z</time>
      </trkpt>
      <trkpt lat="43.0743" lon="0.59359">
        <ele>432.014783</ele>
        <time>2021-04-23T21:22:47.701Z</time>
      </trkpt>
      <trkpt lat="43.07398" lon="0.5935">
        <ele>431.967416</ele>
        <time>2021-04-23T21:22:54.990Z</time>
      </trkpt>
      <trkpt lat="43.07335" lon="0.59368">
        <ele>431.793931</ele>
        <time>2021-04-23T21:23:08.732Z</time>
      </trkpt>
      <trkpt lat="43.07309" lon="0.59374">
        <ele>431.632695</ele>
        <time>2021-04-23T21:23:14.041Z</time>
      </trkpt>
      <trkpt lat="43.07208" lon="0.59387">
        <ele>431.005839</ele>
        <time>2021-04-23T21:23:35.170Z</time>
      </trkpt>
      <trkpt lat="43.07162" lon="0.59401">
        <ele>430.787035</ele>
        <time>2021-04-23T21:23:45.183Z</time>
      </trkpt>
      <trkpt lat="43.07067" lon="0.59344">
        <ele>430.799331</ele>
        <time>2021-04-23T21:24:09.203Z</time>
      </trkpt>
      <trkpt lat="43.06907" lon="0.5932">
        <ele>431.12254</ele>
        <time>2021-04-23T21:24:48.187Z</time>
      </trkpt>
      <trkpt lat="43.06743" lon="0.59264">
        <ele>431.703949</ele>
        <time>2021-04-23T21:25:29.769Z</time>
      </trkpt>
      <trkpt lat="43.06651" lon="0.59277">
        <ele>432.035958</ele>
        <time>2021-04-23T21:25:52.542Z</time>
      </trkpt>
      <trkpt lat="43.06508" lon="0.59242">
        <ele>432.753258</ele>
        <time>2021-04-23T21:26:29.169Z</time>
      </trkpt>
      <trkpt lat="43.06481" lon="0.59237">
        <ele>432.887596</ele>
        <time>2021-04-23T21:26:36.072Z</time>
      </trkpt>
      <trkpt lat="43.06404" lon="0.59224">
        <ele>433.455932</ele>
        <time>2021-04-23T21:26:55.692Z</time>
      </trkpt>
      <trkpt lat="43.06297" lon="0.5921">
        <ele>434.285184</ele>
        <time>2021-04-23T21:27:24.141Z</time>
      </trkpt>
      <trkpt lat="43.06229" lon="0.59195">
        <ele>435.108004</ele>
        <time>2021-04-23T21:27:43.039Z</time>
      </trkpt>
      <trkpt lat="43.06189" lon="0.59191">
        <ele>435.599792</ele>
        <time>2021-04-23T21:27:54.436Z</time>
      </trkpt>
      <trkpt lat="43.06152" lon="0.59192">
        <ele>436.055567</ele>
        <time>2021-04-23T21:28:05.123Z</time>
      </trkpt>
      <trkpt lat="43.06133" lon="0.59201">
        <ele>436.30533</ele>
        <time>2021-04-23T21:28:10.792Z</time>
      </trkpt>
      <trkpt lat="43.06098" lon="0.59226">
        <ele>436.835864</ele>
        <time>2021-04-23T21:28:22.107Z</time>
      </trkpt>
      <trkpt lat="43.06093" lon="0.59231">
        <ele>436.931907</ele>
        <time>2021-04-23T21:28:24.086Z</time>
      </trkpt>
      <trkpt lat="43.06085" lon="0.59239">
        <ele>437.068765</ele>
        <time>2021-04-23T21:28:26.859Z</time>
      </trkpt>
      <trkpt lat="43.06038" lon="0.59277">
        <ele>437.862266</ele>
        <time>2021-04-23T21:28:42.603Z</time>
      </trkpt>
      <trkpt lat="43.06036" lon="0.5928">
        <ele>437.908196</ele>
        <time>2021-04-23T21:28:43.605Z</time>
      </trkpt>
      <trkpt lat="43.06033" lon="0.59267">
        <ele>438.047581</ele>
        <time>2021-04-23T21:28:46.378Z</time>
      </trkpt>
      <trkpt lat="43.06009" lon="0.59214">
        <ele>438.710859</ele>
        <time>2021-04-23T21:28:59.600Z</time>
      </trkpt>
      <trkpt lat="43.06003" lon="0.59205">
        <ele>438.83901</ele>
        <time>2021-04-23T21:29:02.140Z</time>
      </trkpt>
      <trkpt lat="43.05992" lon="0.59188">
        <ele>439.076534</ele>
        <time>2021-04-23T21:29:06.899Z</time>
      </trkpt>
      <trkpt lat="43.05975" lon="0.59159">
        <ele>439.516029</ele>
        <time>2021-04-23T21:29:14.912Z</time>
      </trkpt>
      <trkpt lat="43.05938" lon="0.59126">
        <ele>440.24095</ele>
        <time>2021-04-23T21:29:27.849Z</time>
      </trkpt>
      <trkpt lat="43.05934" lon="0.59134">
        <ele>440.354144</ele>
        <time>2021-04-23T21:29:30.018Z</time>
      </trkpt>
      <trkpt lat="43.05929" lon="0.59126">
        <ele>440.473607</ele>
        <time>2021-04-23T21:29:32.015Z</time>
      </trkpt>
      <trkpt lat="43.05913" lon="0.59112">
        <ele>440.789907</ele>
        <time>2021-04-23T21:29:37.509Z</time>
      </trkpt>
      <trkpt lat="43.05899" lon="0.59103">
        <ele>441.040163</ele>
        <time>2021-04-23T21:29:41.975Z</time>
      </trkpt>
      <trkpt lat="43.05876" lon="0.59093">
        <ele>441.442299</ele>
        <time>2021-04-23T21:29:49.160Z</time>
      </trkpt>
      <trkpt lat="43.05829" lon="0.59087">
        <ele>442.219879</ele>
        <time>2021-04-23T21:30:02.949Z</time>
      </trkpt>
      <trkpt lat="43.0577" lon="0.59098">
        <ele>443.290843</ele>
        <time>2021-04-23T21:30:20.556Z</time>
      </trkpt>
      <trkpt lat="43.05728" lon="0.59112">
        <ele>444.066683</ele>
        <time>2021-04-23T21:30:33.345Z</time>
      </trkpt>
      <trkpt lat="43.0572" lon="0.59107">
        <ele>444.228681</ele>
        <time>2021-04-23T21:30:35.947Z</time>
      </trkpt>
      <trkpt lat="43.05678" lon="0.58966">
        <ele>446.524192</ele>
        <time>2021-04-23T21:31:08.629Z</time>
      </trkpt>
      <trkpt lat="43.05675" lon="0.58954">
        <ele>446.747164</ele>
        <time>2021-04-23T21:31:11.477Z</time>
      </trkpt>
      <trkpt lat="43.05669" lon="0.58914">
        <ele>447.466684</ele>
        <time>2021-04-23T21:31:20.564Z</time>
      </trkpt>
      <trkpt lat="43.05212" lon="0.59045">
        <ele>460.818294</ele>
        <time>2021-04-23T21:34:03.080Z</time>
      </trkpt>
      <trkpt lat="43.05175" lon="0.59035">
        <ele>462.039701</ele>
        <time>2021-04-23T21:34:17.818Z</time>
      </trkpt>
      <trkpt lat="43.05137" lon="0.59038">
        <ele>463.271854</ele>
        <time>2021-04-23T21:34:33.494Z</time>
      </trkpt>
      <trkpt lat="43.05103" lon="0.59035">
        <ele>464.349992</ele>
        <time>2021-04-23T21:34:46.231Z</time>
      </trkpt>
      <trkpt lat="43.05011" lon="0.59051">
        <ele>465.928246</ele>
        <time>2021-04-23T21:35:15.698Z</time>
      </trkpt>
      <trkpt lat="43.05" lon="0.5905">
        <ele>465.896205</ele>
        <time>2021-04-23T21:35:19.459Z</time>
      </trkpt>
      <trkpt lat="43.04861" lon="0.59022">
        <ele>465.224654</ele>
        <time>2021-04-23T21:35:47.354Z</time>
      </trkpt>
      <trkpt lat="43.0479" lon="0.59008">
        <ele>463.408105</ele>
        <time>2021-04-23T21:35:59.593Z</time>
      </trkpt>
      <trkpt lat="43.04756" lon="0.59008">
        <ele>462.52518</ele>
        <time>2021-04-23T21:36:05.578Z</time>
      </trkpt>
      <trkpt lat="43.04654" lon="0.59011">
        <ele>460.151215</ele>
        <time>2021-04-23T21:36:23.566Z</time>
      </trkpt>
      <trkpt lat="43.04618" lon="0.59023">
        <ele>459.392255</ele>
        <time>2021-04-23T21:36:30.390Z</time>
      </trkpt>
      <trkpt lat="43.04526" lon="0.59077">
        <ele>457.369925</ele>
        <time>2021-04-23T21:36:48.954Z</time>
      </trkpt>
      <trkpt lat="43.04435" lon="0.59162">
        <ele>455.927424</ele>
        <time>2021-04-23T21:37:10.095Z</time>
      </trkpt>
      <trkpt lat="43.04388" lon="0.59225">
        <ele>455.075479</ele>
        <time>2021-04-23T21:37:23.280Z</time>
      </trkpt>
      <trkpt lat="43.04372" lon="0.59235">
        <ele>455.064991</ele>
        <time>2021-04-23T21:37:26.972Z</time>
      </trkpt>
      <trkpt lat="43.04358" lon="0.59237">
        <ele>455.175799</ele>
        <time>2021-04-23T21:37:30.104Z</time>
      </trkpt>
      <trkpt lat="43.04336" lon="0.59242">
        <ele>455.343458</ele>
        <time>2021-04-23T21:37:34.976Z</time>
      </trkpt>
      <trkpt lat="43.04327" lon="0.59239">
        <ele>455.417</ele>
        <time>2021-04-23T21:37:37.155Z</time>
      </trkpt>
      <trkpt lat="43.04282" lon="0.5924">
        <ele>455.757322</ele>
        <time>2021-04-23T21:37:48.079Z</time>
      </trkpt>
      <trkpt lat="43.04157" lon="0.59244">
        <ele>457.734696</ele>
        <time>2021-04-23T21:38:26.947Z</time>
      </trkpt>
      <trkpt lat="43.03975" lon="0.59249">
        <ele>461.429607</ele>
        <time>2021-04-23T21:39:34.201Z</time>
      </trkpt>
      <trkpt lat="43.03958" lon="0.59253">
        <ele>461.336052</ele>
        <time>2021-04-23T21:39:40.288Z</time>
      </trkpt>
      <trkpt lat="43.03947" lon="0.59255">
        <ele>461.27389</ele>
        <time>2021-04-23T21:39:42.584Z</time>
      </trkpt>
      <trkpt lat="43.03807" lon="0.59285">
        <ele>458.54093</ele>
        <time>2021-04-23T21:40:07.301Z</time>
      </trkpt>
      <trkpt lat="43.03771" lon="0.59293">
        <ele>456.545683</ele>
        <time>2021-04-23T21:40:12.885Z</time>
      </trkpt>
      <trkpt lat="43.03645" lon="0.59319">
        <ele>450.3423</ele>
        <time>2021-04-23T21:40:31.974Z</time>
      </trkpt>
      <trkpt lat="43.03579" lon="0.59331">
        <ele>448.747757</ele>
        <time>2021-04-23T21:40:42.755Z</time>
      </trkpt>
      <trkpt lat="43.0357" lon="0.5933">
        <ele>448.524173</ele>
        <time>2021-04-23T21:40:44.350Z</time>
      </trkpt>
      <trkpt lat="43.03558" lon="0.59326">
        <ele>448.230307</ele>
        <time>2021-04-23T21:40:46.639Z</time>
      </trkpt>
      <trkpt lat="43.0353" lon="0.59315">
        <ele>447.521504</ele>
        <time>2021-04-23T21:40:52.264Z</time>
      </trkpt>
      <trkpt lat="43.03501" lon="0.59307">
        <ele>446.827187</ele>
        <time>2021-04-23T21:40:58.587Z</time>
      </trkpt>
      <trkpt lat="43.03485" lon="0.59307">
        <ele>446.766566</ele>
        <time>2021-04-23T21:41:02.896Z</time>
      </trkpt>
      <trkpt lat="43.03476" lon="0.59234">
        <ele>448.392293</ele>
        <time>2021-04-23T21:41:18.707Z</time>
      </trkpt>
      <trkpt lat="43.03483" lon="0.59104">
        <ele>451.247459</ele>
        <time>2021-04-23T21:41:55.595Z</time>
      </trkpt>
      <trkpt lat="43.03465" lon="0.59004">
        <ele>453.317424</ele>
        <time>2021-04-23T21:42:24.826Z</time>
      </trkpt>
      <trkpt lat="43.03454" lon="0.58889">
        <ele>455.555303</ele>
        <time>2021-04-23T21:42:52.365Z</time>
      </trkpt>
      <trkpt lat="43.03453" lon="0.58868">
        <ele>455.961041</ele>
        <time>2021-04-23T21:42:57.977Z</time>
      </trkpt>
      <trkpt lat="43.0345" lon="0.58835">
        <ele>456.58461</ele>
        <time>2021-04-23T21:43:03.559Z</time>
      </trkpt>
      <trkpt lat="43.03443" lon="0.58795">
        <ele>456.722305</ele>
        <time>2021-04-23T21:43:11.296Z</time>
      </trkpt>
      <trkpt lat="43.03419" lon="0.58739">
        <ele>456.737416</ele>
        <time>2021-04-23T21:43:22.940Z</time>
      </trkpt>
      <trkpt lat="43.03413" lon="0.58717">
        <ele>456.742885</ele>
        <time>2021-04-23T21:43:26.167Z</time>
      </trkpt>
      <trkpt lat="43.03397" lon="0.58669">
        <ele>456.755158</ele>
        <time>2021-04-23T21:43:33.897Z</time>
      </trkpt>
      <trkpt lat="43.03351" lon="0.58555">
        <ele>456.958036</ele>
        <time>2021-04-23T21:43:53.538Z</time>
      </trkpt>
      <trkpt lat="43.0335" lon="0.58551">
        <ele>456.97153</ele>
        <time>2021-04-23T21:43:54.096Z</time>
      </trkpt>
      <trkpt lat="43.03345" lon="0.58536">
        <ele>457.021783</ele>
        <time>2021-04-23T21:43:57.090Z</time>
      </trkpt>
      <trkpt lat="43.0334" lon="0.58512">
        <ele>457.100749</ele>
        <time>2021-04-23T21:44:01.634Z</time>
      </trkpt>
      <trkpt lat="43.03338" lon="0.58496">
        <ele>457.148946</ele>
        <time>2021-04-23T21:44:04.481Z</time>
      </trkpt>
      <trkpt lat="43.03335" lon="0.58473">
        <ele>457.223732</ele>
        <time>2021-04-23T21:44:09.030Z</time>
      </trkpt>
      <trkpt lat="43.03324" lon="0.58409">
        <ele>457.425434</ele>
        <time>2021-04-23T21:44:21.261Z</time>
      </trkpt>
      <trkpt lat="43.03318" lon="0.58372">
        <ele>457.546692</ele>
        <time>2021-04-23T21:44:28.664Z</time>
      </trkpt>
      <trkpt lat="43.03312" lon="0.5835">
        <ele>457.638868</ele>
        <time>2021-04-23T21:44:33.339Z</time>
      </trkpt>
      <trkpt lat="43.03302" lon="0.58356">
        <ele>457.693816</ele>
        <time>2021-04-23T21:44:36.265Z</time>
      </trkpt>
      <trkpt lat="43.03312" lon="0.5835">
        <ele>457.748765</ele>
        <time>2021-04-23T21:44:38.903Z</time>
      </trkpt>
      <trkpt lat="43.03309" lon="0.5833">
        <ele>457.826438</ele>
        <time>2021-04-23T21:44:43.091Z</time>
      </trkpt>
      <trkpt lat="43.03308" lon="0.58311">
        <ele>457.899498</ele>
        <time>2021-04-23T21:44:46.671Z</time>
      </trkpt>
      <trkpt lat="43.0331" lon="0.58265">
        <ele>458.080931</ele>
        <time>2021-04-23T21:44:55.525Z</time>
      </trkpt>
      <trkpt lat="43.03312" lon="0.58243">
        <ele>458.166562</ele>
        <time>2021-04-23T21:44:59.236Z</time>
      </trkpt>
      <trkpt lat="43.03312" lon="0.58172">
        <ele>458.445399</ele>
        <time>2021-04-23T21:45:11.057Z</time>
      </trkpt>
      <trkpt lat="43.03321" lon="0.58108">
        <ele>458.201759</ele>
        <time>2021-04-23T21:45:20.712Z</time>
      </trkpt>
      <trkpt lat="43.03329" lon="0.58058">
        <ele>457.91616</ele>
        <time>2021-04-23T21:45:28.269Z</time>
      </trkpt>
      <trkpt lat="43.03331" lon="0.58042">
        <ele>457.824974</ele>
        <time>2021-04-23T21:45:30.555Z</time>
      </trkpt>
      <trkpt lat="43.03363" lon="0.57877">
        <ele>456.911502</ele>
        <time>2021-04-23T21:45:54.845Z</time>
      </trkpt>
      <trkpt lat="43.03363" lon="0.57855">
        <ele>456.811274</ele>
        <time>2021-04-23T21:45:57.775Z</time>
      </trkpt>
      <trkpt lat="43.0335" lon="0.5783">
        <ele>456.667998</ele>
        <time>2021-04-23T21:46:02.294Z</time>
      </trkpt>
      <trkpt lat="43.03343" lon="0.57815">
        <ele>456.585946</ele>
        <time>2021-04-23T21:46:04.774Z</time>
      </trkpt>
      <trkpt lat="43.03336" lon="0.57784">
        <ele>456.429896</ele>
        <time>2021-04-23T21:46:09.870Z</time>
      </trkpt>
      <trkpt lat="43.0333" lon="0.57761">
        <ele>456.315644</ele>
        <time>2021-04-23T21:46:13.415Z</time>
      </trkpt>
      <trkpt lat="43.03334" lon="0.57754">
        <ele>456.272337</ele>
        <time>2021-04-23T21:46:14.821Z</time>
      </trkpt>
      <trkpt lat="43.0334" lon="0.57641">
        <ele>455.886573</ele>
        <time>2021-04-23T21:46:31.863Z</time>
      </trkpt>
      <trkpt lat="43.03337" lon="0.57588">
        <ele>455.800012</ele>
        <time>2021-04-23T21:46:40.091Z</time>
      </trkpt>
      <trkpt lat="43.03332" lon="0.57519">
        <ele>455.687679</ele>
        <time>2021-04-23T21:46:51.392Z</time>
      </trkpt>
      <trkpt lat="43.03329" lon="0.57464">
        <ele>455.599196</ele>
        <time>2021-04-23T21:47:00.285Z</time>
      </trkpt>
      <trkpt lat="43.03332" lon="0.57403">
        <ele>455.526636</ele>
        <time>2021-04-23T21:47:10.077Z</time>
      </trkpt>
      <trkpt lat="43.03333" lon="0.57382">
        <ele>455.506427</ele>
        <time>2021-04-23T21:47:13.409Z</time>
      </trkpt>
      <trkpt lat="43.03335" lon="0.57369">
        <ele>455.49343</ele>
        <time>2021-04-23T21:47:15.636Z</time>
      </trkpt>
      <trkpt lat="43.03344" lon="0.57212">
        <ele>455.343173</ele>
        <time>2021-04-23T21:47:40.572Z</time>
      </trkpt>
      <trkpt lat="43.03357" lon="0.57168">
        <ele>455.295619</ele>
        <time>2021-04-23T21:47:48.297Z</time>
      </trkpt>
      <trkpt lat="43.03363" lon="0.57088">
        <ele>455.214081</ele>
        <time>2021-04-23T21:48:01.259Z</time>
      </trkpt>
      <trkpt lat="43.03367" lon="0.57068">
        <ele>455.193346</ele>
        <time>2021-04-23T21:48:04.258Z</time>
      </trkpt>
      <trkpt lat="43.03379" lon="0.57024">
        <ele>455.145506</ele>
        <time>2021-04-23T21:48:11.718Z</time>
      </trkpt>
      <trkpt lat="43.03393" lon="0.56956">
        <ele>455.075172</ele>
        <time>2021-04-23T21:48:23.077Z</time>
      </trkpt>
      <trkpt lat="43.03393" lon="0.56948">
        <ele>455.069903</ele>
        <time>2021-04-23T21:48:24.459Z</time>
      </trkpt>
      <trkpt lat="43.03409" lon="0.56932">
        <ele>455.051368</ele>
        <time>2021-04-23T21:48:28.726Z</time>
      </trkpt>
      <trkpt lat="43.03421" lon="0.5692">
        <ele>455.037596</ele>
        <time>2021-04-23T21:48:32.293Z</time>
      </trkpt>
      <trkpt lat="43.03429" lon="0.56905">
        <ele>455.025035</ele>
        <time>2021-04-23T21:48:35.148Z</time>
      </trkpt>
      <trkpt lat="43.03432" lon="0.56887">
        <ele>455.012498</ele>
        <time>2021-04-23T21:48:38.254Z</time>
      </trkpt>
      <trkpt lat="43.03434" lon="0.56838">
        <ele>454.97928</ele>
        <time>2021-04-23T21:48:46.424Z</time>
      </trkpt>
      <trkpt lat="43.03443" lon="0.56792">
        <ele>454.947511</ele>
        <time>2021-04-23T21:48:54.173Z</time>
      </trkpt>
      <trkpt lat="43.03478" lon="0.56724">
        <ele>455.217562</ele>
        <time>2021-04-23T21:49:08.319Z</time>
      </trkpt>
      <trkpt lat="43.03496" lon="0.56673">
        <ele>455.750103</ele>
        <time>2021-04-23T21:49:18.865Z</time>
      </trkpt>
      <trkpt lat="43.03533" lon="0.56608">
        <ele>456.532664</ele>
        <time>2021-04-23T21:49:35.372Z</time>
      </trkpt>
      <trkpt lat="43.03536" lon="0.56575">
        <ele>456.843984</ele>
        <time>2021-04-23T21:49:42.398Z</time>
      </trkpt>
      <trkpt lat="43.0353" lon="0.56479">
        <ele>458.514779</ele>
        <time>2021-04-23T21:50:07.858Z</time>
      </trkpt>
      <trkpt lat="43.03577" lon="0.56398">
        <ele>460.957637</ele>
        <time>2021-04-23T21:50:36.971Z</time>
      </trkpt>
      <trkpt lat="43.03582" lon="0.56371">
        <ele>461.590474</ele>
        <time>2021-04-23T21:50:42.995Z</time>
      </trkpt>
      <trkpt lat="43.03581" lon="0.56363">
        <ele>461.782327</ele>
        <time>2021-04-23T21:50:46.121Z</time>
      </trkpt>
      <trkpt lat="43.0358" lon="0.56358">
        <ele>461.905595</ele>
        <time>2021-04-23T21:50:47.799Z</time>
      </trkpt>
      <trkpt lat="43.03566" lon="0.56302">
        <ele>463.18009</ele>
        <time>2021-04-23T21:51:02.842Z</time>
      </trkpt>
      <trkpt lat="43.03573" lon="0.56267">
        <ele>463.751294</ele>
        <time>2021-04-23T21:51:11.625Z</time>
      </trkpt>
      <trkpt lat="43.03579" lon="0.56251">
        <ele>464.036187</ele>
        <time>2021-04-23T21:51:16.315Z</time>
      </trkpt>
      <trkpt lat="43.03634" lon="0.56217">
        <ele>465.32517</ele>
        <time>2021-04-23T21:51:36.140Z</time>
      </trkpt>
      <trkpt lat="43.03687" lon="0.56198">
        <ele>466.497527</ele>
        <time>2021-04-23T21:51:51.443Z</time>
      </trkpt>
      <trkpt lat="43.03708" lon="0.56184">
        <ele>466.886815</ele>
        <time>2021-04-23T21:51:57.277Z</time>
      </trkpt>
      <trkpt lat="43.03724" lon="0.56171">
        <ele>467.062335</ele>
        <time>2021-04-23T21:52:02.161Z</time>
      </trkpt>
      <trkpt lat="43.03776" lon="0.56119">
        <ele>467.669739</ele>
        <time>2021-04-23T21:52:18.155Z</time>
      </trkpt>
      <trkpt lat="43.03864" lon="0.56035">
        <ele>468.592789</ele>
        <time>2021-04-23T21:52:46.629Z</time>
      </trkpt>
      <trkpt lat="43.03897" lon="0.56024">
        <ele>468.750374</ele>
        <time>2021-04-23T21:52:55.289Z</time>
      </trkpt>
      <trkpt lat="43.03984" lon="0.56014">
        <ele>469.150014</ele>
        <time>2021-04-23T21:53:15.934Z</time>
      </trkpt>
      <trkpt lat="43.04019" lon="0.56004">
        <ele>469.312993</ele>
        <time>2021-04-23T21:53:24.131Z</time>
      </trkpt>
      <trkpt lat="43.04056" lon="0.5598">
        <ele>469.15546</ele>
        <time>2021-04-23T21:53:33.188Z</time>
      </trkpt>
      <trkpt lat="43.04081" lon="0.55945">
        <ele>468.983871</ele>
        <time>2021-04-23T21:53:41.098Z</time>
      </trkpt>
      <trkpt lat="43.04224" lon="0.55602">
        <ele>466.606485</ele>
        <time>2021-04-23T21:54:37.805Z</time>
      </trkpt>
      <trkpt lat="43.0423" lon="0.55592">
        <ele>466.42304</ele>
        <time>2021-04-23T21:54:39.432Z</time>
      </trkpt>
      <trkpt lat="43.04249" lon="0.55572">
        <ele>465.950136</ele>
        <time>2021-04-23T21:54:43.586Z</time>
      </trkpt>
      <trkpt lat="43.04307" lon="0.55536">
        <ele>464.675727</ele>
        <time>2021-04-23T21:54:54.692Z</time>
      </trkpt>
      <trkpt lat="43.04334" lon="0.55536">
        <ele>464.143777</ele>
        <time>2021-04-23T21:54:59.292Z</time>
      </trkpt>
      <trkpt lat="43.04389" lon="0.55556">
        <ele>463.042003</ele>
        <time>2021-04-23T21:55:09.000Z</time>
      </trkpt>
      <trkpt lat="43.04406" lon="0.55554">
        <ele>462.86346</ele>
        <time>2021-04-23T21:55:12.140Z</time>
      </trkpt>
      <trkpt lat="43.04433" lon="0.55519">
        <ele>462.481738</ele>
        <time>2021-04-23T21:55:18.996Z</time>
      </trkpt>
      <trkpt lat="43.04523" lon="0.55485">
        <ele>461.522669</ele>
        <time>2021-04-23T21:55:37.287Z</time>
      </trkpt>
      <trkpt lat="43.04679" lon="0.55397">
        <ele>460.983048</ele>
        <time>2021-04-23T21:56:13.738Z</time>
      </trkpt>
      <trkpt lat="43.04715" lon="0.55357">
        <ele>460.944965</ele>
        <time>2021-04-23T21:56:23.577Z</time>
      </trkpt>
      <trkpt lat="43.04738" lon="0.55305">
        <ele>461.226552</ele>
        <time>2021-04-23T21:56:34.047Z</time>
      </trkpt>
      <trkpt lat="43.04747" lon="0.55292">
        <ele>461.303845</ele>
        <time>2021-04-23T21:56:36.761Z</time>
      </trkpt>
      <trkpt lat="43.04752" lon="0.55288">
        <ele>461.342697</ele>
        <time>2021-04-23T21:56:38.482Z</time>
      </trkpt>
      <trkpt lat="43.04778" lon="0.55276">
        <ele>461.516797</ele>
        <time>2021-04-23T21:56:45.614Z</time>
      </trkpt>
      <trkpt lat="43.04807" lon="0.55264">
        <ele>461.705518</ele>
        <time>2021-04-23T21:56:53.655Z</time>
      </trkpt>
      <trkpt lat="43.04815" lon="0.55263">
        <ele>461.754387</ele>
        <time>2021-04-23T21:56:55.522Z</time>
      </trkpt>
      <trkpt lat="43.04842" lon="0.5527">
        <ele>461.925757</ele>
        <time>2021-04-23T21:57:02.703Z</time>
      </trkpt>
      <trkpt lat="43.04851" lon="0.55271">
        <ele>461.985579</ele>
        <time>2021-04-23T21:57:04.892Z</time>
      </trkpt>
      <trkpt lat="43.04863" lon="0.55269">
        <ele>462.060011</ele>
        <time>2021-04-23T21:57:08.539Z</time>
      </trkpt>
      <trkpt lat="43.04878" lon="0.55262">
        <ele>462.155603</ele>
        <time>2021-04-23T21:57:12.010Z</time>
      </trkpt>
      <trkpt lat="43.04928" lon="0.55224">
        <ele>462.497876</ele>
        <time>2021-04-23T21:57:26.773Z</time>
      </trkpt>
      <trkpt lat="43.05083" lon="0.55114">
        <ele>463.71285</ele>
        <time>2021-04-23T21:58:08.566Z</time>
      </trkpt>
      <trkpt lat="43.05099" lon="0.55132">
        <ele>463.88887</ele>
        <time>2021-04-23T21:58:13.414Z</time>
      </trkpt>
      <trkpt lat="43.05122" lon="0.55153">
        <ele>464.116102</ele>
        <time>2021-04-23T21:58:19.933Z</time>
      </trkpt>
      <trkpt lat="43.05229" lon="0.55227">
        <ele>465.350379</ele>
        <time>2021-04-23T21:58:54.651Z</time>
      </trkpt>
      <trkpt lat="43.05376" lon="0.55334">
        <ele>466.145285</ele>
        <time>2021-04-23T21:59:39.238Z</time>
      </trkpt>
      <trkpt lat="43.05384" lon="0.5534">
        <ele>466.014563</ele>
        <time>2021-04-23T21:59:40.869Z</time>
      </trkpt>
      <trkpt lat="43.0542" lon="0.55365">
        <ele>465.428509</ele>
        <time>2021-04-23T21:59:48.060Z</time>
      </trkpt>
      <trkpt lat="43.05463" lon="0.55425">
        <ele>464.529797</ele>
        <time>2021-04-23T21:59:58.636Z</time>
      </trkpt>
      <trkpt lat="43.05486" lon="0.55448">
        <ele>464.039375</ele>
        <time>2021-04-23T22:00:03.316Z</time>
      </trkpt>
      <trkpt lat="43.05524" lon="0.55466">
        <ele>462.780267</ele>
        <time>2021-04-23T22:00:09.630Z</time>
      </trkpt>
      <trkpt lat="43.05529" lon="0.55464">
        <ele>462.608803</ele>
        <time>2021-04-23T22:00:10.390Z</time>
      </trkpt>
      <trkpt lat="43.05531" lon="0.55461">
        <ele>462.503593</ele>
        <time>2021-04-23T22:00:10.877Z</time>
      </trkpt>
      <trkpt lat="43.05556" lon="0.55425">
        <ele>461.368576</ele>
        <time>2021-04-23T22:00:16.693Z</time>
      </trkpt>
      <trkpt lat="43.05583" lon="0.55413">
        <ele>460.469638</ele>
        <time>2021-04-23T22:00:21.572Z</time>
      </trkpt>
      <trkpt lat="43.05645" lon="0.55398">
        <ele>458.514917</ele>
        <time>2021-04-23T22:00:31.963Z</time>
      </trkpt>
      <trkpt lat="43.0565" lon="0.55396">
        <ele>458.457966</ele>
        <time>2021-04-23T22:00:32.828Z</time>
      </trkpt>
      <trkpt lat="43.05677" lon="0.55388">
        <ele>458.148511</ele>
        <time>2021-04-23T22:00:37.296Z</time>
      </trkpt>
      <trkpt lat="43.0574" lon="0.55372">
        <ele>457.409536</ele>
        <time>2021-04-23T22:00:49.674Z</time>
      </trkpt>
      <trkpt lat="43.05815" lon="0.55335">
        <ele>456.501503</ele>
        <time>2021-04-23T22:01:06.189Z</time>
      </trkpt>
      <trkpt lat="43.05913" lon="0.55304">
        <ele>456.539898</ele>
        <time>2021-04-23T22:01:29.511Z</time>
      </trkpt>
      <trkpt lat="43.05951" lon="0.55283">
        <ele>456.564713</ele>
        <time>2021-04-23T22:01:38.917Z</time>
      </trkpt>
      <trkpt lat="43.06004" lon="0.55234">
        <ele>456.330653</ele>
        <time>2021-04-23T22:01:53.157Z</time>
      </trkpt>
      <trkpt lat="43.06022" lon="0.55228">
        <ele>456.122765</ele>
        <time>2021-04-23T22:01:57.020Z</time>
      </trkpt>
      <trkpt lat="43.06073" lon="0.55233">
        <ele>455.552056</ele>
        <time>2021-04-23T22:02:07.101Z</time>
      </trkpt>
      <trkpt lat="43.06119" lon="0.55219">
        <ele>455.035542</ele>
        <time>2021-04-23T22:02:15.665Z</time>
      </trkpt>
      <trkpt lat="43.06223" lon="0.55162">
        <ele>453.379776</ele>
        <time>2021-04-23T22:02:35.258Z</time>
      </trkpt>
      <trkpt lat="43.06288" lon="0.55105">
        <ele>452.093338</ele>
        <time>2021-04-23T22:02:49.103Z</time>
      </trkpt>
      <trkpt lat="43.06299" lon="0.55096">
        <ele>451.87721</ele>
        <time>2021-04-23T22:02:51.314Z</time>
      </trkpt>
      <trkpt lat="43.06306" lon="0.55091">
        <ele>451.743787</ele>
        <time>2021-04-23T22:02:53.235Z</time>
      </trkpt>
      <trkpt lat="43.06329" lon="0.55088">
        <ele>451.613396</ele>
        <time>2021-04-23T22:02:57.580Z</time>
      </trkpt>
      <trkpt lat="43.06394" lon="0.55108">
        <ele>451.765223</ele>
        <time>2021-04-23T22:03:11.651Z</time>
      </trkpt>
      <trkpt lat="43.06425" lon="0.55126">
        <ele>451.842142</ele>
        <time>2021-04-23T22:03:19.573Z</time>
      </trkpt>
      <trkpt lat="43.06448" lon="0.55132">
        <ele>451.894951</ele>
        <time>2021-04-23T22:03:25.306Z</time>
      </trkpt>
      <trkpt lat="43.06525" lon="0.55107">
        <ele>452.495218</ele>
        <time>2021-04-23T22:03:47.601Z</time>
      </trkpt>
      <trkpt lat="43.06539" lon="0.55106">
        <ele>452.681243</ele>
        <time>2021-04-23T22:03:52.274Z</time>
      </trkpt>
      <trkpt lat="43.06604" lon="0.55127">
        <ele>453.578175</ele>
        <time>2021-04-23T22:04:11.449Z</time>
      </trkpt>
      <trkpt lat="43.06633" lon="0.55125">
        <ele>453.962893</ele>
        <time>2021-04-23T22:04:18.950Z</time>
      </trkpt>
      <trkpt lat="43.06647" lon="0.55119">
        <ele>454.170232</ele>
        <time>2021-04-23T22:04:23.387Z</time>
      </trkpt>
      <trkpt lat="43.06677" lon="0.55106">
        <ele>454.291121</ele>
        <time>2021-04-23T22:04:31.336Z</time>
      </trkpt>
      <trkpt lat="43.06716" lon="0.5509">
        <ele>453.89408</ele>
        <time>2021-04-23T22:04:41.094Z</time>
      </trkpt>
      <trkpt lat="43.06775" lon="0.55087">
        <ele>453.331464</ele>
        <time>2021-04-23T22:04:52.991Z</time>
      </trkpt>
      <trkpt lat="43.06891" lon="0.55108">
        <ele>450.845159</ele>
        <time>2021-04-23T22:05:12.779Z</time>
      </trkpt>
      <trkpt lat="43.0691" lon="0.55113">
        <ele>450.147919</ele>
        <time>2021-04-23T22:05:15.910Z</time>
      </trkpt>
      <trkpt lat="43.06915" lon="0.55114">
        <ele>449.982487</ele>
        <time>2021-04-23T22:05:16.695Z</time>
      </trkpt>
      <trkpt lat="43.06947" lon="0.55127">
        <ele>448.743125</ele>
        <time>2021-04-23T22:05:22.254Z</time>
      </trkpt>
      <trkpt lat="43.06953" lon="0.55125">
        <ele>448.5251</ele>
        <time>2021-04-23T22:05:23.297Z</time>
      </trkpt>
      <trkpt lat="43.06957" lon="0.55123">
        <ele>448.360245</ele>
        <time>2021-04-23T22:05:24.029Z</time>
      </trkpt>
      <trkpt lat="43.06959" lon="0.55118">
        <ele>448.217574</ele>
        <time>2021-04-23T22:05:24.623Z</time>
      </trkpt>
      <trkpt lat="43.06943" lon="0.55025">
        <ele>445.368444</ele>
        <time>2021-04-23T22:05:35.333Z</time>
      </trkpt>
      <trkpt lat="43.06906" lon="0.54929">
        <ele>440.415786</ele>
        <time>2021-04-23T22:05:46.780Z</time>
      </trkpt>
      <trkpt lat="43.06909" lon="0.54906">
        <ele>439.35612</ele>
        <time>2021-04-23T22:05:49.299Z</time>
      </trkpt>
      <trkpt lat="43.06916" lon="0.54898">
        <ele>438.811468</ele>
        <time>2021-04-23T22:05:50.547Z</time>
      </trkpt>
      <trkpt lat="43.06918" lon="0.54896">
        <ele>438.680301</ele>
        <time>2021-04-23T22:05:50.852Z</time>
      </trkpt>
      <trkpt lat="43.0692" lon="0.54893">
        <ele>438.473242</ele>
        <time>2021-04-23T22:05:51.340Z</time>
      </trkpt>
      <trkpt lat="43.06926" lon="0.54888">
        <ele>438.054107</ele>
        <time>2021-04-23T22:05:52.330Z</time>
      </trkpt>
      <trkpt lat="43.06961" lon="0.54851">
        <ele>435.314315</ele>
        <time>2021-04-23T22:05:58.790Z</time>
      </trkpt>
      <trkpt lat="43.06982" lon="0.54827">
        <ele>434.151984</ele>
        <time>2021-04-23T22:06:02.832Z</time>
      </trkpt>
      <trkpt lat="43.06988" lon="0.54821">
        <ele>433.882406</ele>
        <time>2021-04-23T22:06:03.887Z</time>
      </trkpt>
      <trkpt lat="43.0699" lon="0.54819">
        <ele>433.77525</ele>
        <time>2021-04-23T22:06:04.314Z</time>
      </trkpt>
      <trkpt lat="43.06993" lon="0.54818">
        <ele>433.67444</ele>
        <time>2021-04-23T22:06:04.727Z</time>
      </trkpt>
      <trkpt lat="43.06998" lon="0.54811">
        <ele>433.399165</ele>
        <time>2021-04-23T22:06:05.837Z</time>
      </trkpt>
      <trkpt lat="43.07058" lon="0.54745">
        <ele>430.502622</ele>
        <time>2021-04-23T22:06:17.978Z</time>
      </trkpt>
      <trkpt lat="43.07195" lon="0.54675">
        <ele>428.414258</ele>
        <time>2021-04-23T22:06:49.542Z</time>
      </trkpt>
      <trkpt lat="43.07161" lon="0.54556">
        <ele>428.621733</ele>
        <time>2021-04-23T22:07:13.953Z</time>
      </trkpt>
      <trkpt lat="43.07123" lon="0.54476">
        <ele>429.312126</ele>
        <time>2021-04-23T22:07:32.065Z</time>
      </trkpt>
      <trkpt lat="43.07117" lon="0.54455">
        <ele>429.484816</ele>
        <time>2021-04-23T22:07:36.798Z</time>
      </trkpt>
      <trkpt lat="43.07108" lon="0.54417">
        <ele>429.775755</ele>
        <time>2021-04-23T22:07:44.417Z</time>
      </trkpt>
      <trkpt lat="43.07104" lon="0.544">
        <ele>429.904442</ele>
        <time>2021-04-23T22:07:47.825Z</time>
      </trkpt>
      <trkpt lat="43.07103" lon="0.54394">
        <ele>429.954466</ele>
        <time>2021-04-23T22:07:49.102Z</time>
      </trkpt>
      <trkpt lat="43.07102" lon="0.54373">
        <ele>430.109223</ele>
        <time>2021-04-23T22:07:53.144Z</time>
      </trkpt>
      <trkpt lat="43.07103" lon="0.5435">
        <ele>430.28141</ele>
        <time>2021-04-23T22:07:57.630Z</time>
      </trkpt>
      <trkpt lat="43.07103" lon="0.54347">
        <ele>430.299893</ele>
        <time>2021-04-23T22:07:58.078Z</time>
      </trkpt>
      <trkpt lat="43.07104" lon="0.54332">
        <ele>430.415594</ele>
        <time>2021-04-23T22:08:00.965Z</time>
      </trkpt>
      <trkpt lat="43.07108" lon="0.54313">
        <ele>430.442509</ele>
        <time>2021-04-23T22:08:04.768Z</time>
      </trkpt>
      <trkpt lat="43.07111" lon="0.54306">
        <ele>430.442509</ele>
        <time>2021-04-23T22:08:06.269Z</time>
      </trkpt>
      <trkpt lat="43.07114" lon="0.543">
        <ele>430.442509</ele>
        <time>2021-04-23T22:08:07.652Z</time>
      </trkpt>
      <trkpt lat="43.07116" lon="0.5429">
        <ele>430.442509</ele>
        <time>2021-04-23T22:08:09.384Z</time>
      </trkpt>
      <trkpt lat="43.07116" lon="0.54281">
        <ele>430.442509</ele>
        <time>2021-04-23T22:08:11.193Z</time>
      </trkpt>
      <trkpt lat="43.07116" lon="0.54276">
        <ele>430.442509</ele>
        <time>2021-04-23T22:08:12.135Z</time>
      </trkpt>
      <trkpt lat="43.07115" lon="0.54251">
        <ele>430.442509</ele>
        <time>2021-04-23T22:08:16.707Z</time>
      </trkpt>
      <trkpt lat="43.07111" lon="0.54199">
        <ele>430.442509</ele>
        <time>2021-04-23T22:08:26.004Z</time>
      </trkpt>
      <trkpt lat="43.07113" lon="0.54167">
        <ele>430.442509</ele>
        <time>2021-04-23T22:08:31.459Z</time>
      </trkpt>
    </trkseg>
  </trk>
</gpx>